Observation data for Throckmorton on 11/17/2019      Previous  Date       Current Mesonet Observations  Soil Data  Daily Summary Page  Observations in Plain Language
KTH1 170600Z 15004KT 06/01 A30 RMK A01 T00620005  RH  067%=      5-min Rain = 0
KTH1 170601Z 15004KT 06/01 A30 RMK A01 T00610006  RH  067%=      5-min Rain = 0
KTH1 170602Z 15004KT 06/01 A30 RMK A01 T00620006  RH  068%=      5-min Rain = 0
KTH1 170603Z 16004KT 06/01 A30 RMK A01 T00610006  RH  068%=      5-min Rain = 0
KTH1 170604Z 15004KT 06/01 A30 RMK A01 T00610006  RH  068%=      5-min Rain = 0
KTH1 170605Z 15004KT 06/01 A30 RMK A01 T00610006  RH  068%=      5-min Rain = 0
KTH1 170606Z 15004KT 06/01 A30 RMK A01 T00610006  RH  068%=      5-min Rain = 0
KTH1 170607Z 15003KT 06/01 A30 RMK A01 T00610006  RH  068%=      5-min Rain = 0
KTH1 170608Z 16003KT 06/01 A30 RMK A01 T00610006  RH  068%=      5-min Rain = 0
KTH1 170609Z 16003KT 06/01 A30 RMK A01 T00610006  RH  068%=      5-min Rain = 0
KTH1 170610Z 16003KT 06/01 A30 RMK A01 T00610006  RH  068%=      5-min Rain = 0
KTH1 170611Z 16002KT 06/01 A30 RMK A01 T00610006  RH  068%=      5-min Rain = 0
KTH1 170612Z 18001KT 06/01 A30 RMK A01 T00610006  RH  068%=      5-min Rain = 0
KTH1 170613Z 18000KT 06/01 A30 RMK A01 T00610007  RH  068%=      5-min Rain = 0
KTH1 170614Z 21000KT 06/01 A30 RMK A01 T00610008  RH  069%=      5-min Rain = 0
KTH1 170615Z 22000KT 06/01 A30 RMK A01 T00610008  RH  069%=      5-min Rain = 0
KTH1 170616Z 20000KT 06/01 A30 RMK A01 T00610008  RH  069%=      5-min Rain = 0
KTH1 170617Z 20001KT 06/01 A30 RMK A01 T00610008  RH  069%=      5-min Rain = 0
KTH1 170618Z 21000KT 06/01 A3001 RMK A01 T00610007  RH  069%=      5-min Rain = 0
KTH1 170619Z 22000KT 06/01 A3001 RMK A01 T00610007  RH  068%=      5-min Rain = 0
KTH1 170620Z 00000KT 06/01 A3001 RMK A01 T00610007  RH  068%=      5-min Rain = 0
KTH1 170621Z 17000KT 06/01 A3001 RMK A01 T00610007  RH  068%=      5-min Rain = 0
KTH1 170622Z 18001KT 06/01 A3001 RMK A01 T00610006  RH  068%=      5-min Rain = 0
KTH1 170623Z 18001KT 06/01 A3001 RMK A01 T00610007  RH  068%=      5-min Rain = 0
KTH1 170624Z 17002KT 06/01 A30 RMK A01 T00610007  RH  069%=      5-min Rain = 0
KTH1 170625Z 17002KT 06/01 A30 RMK A01 T00610008  RH  069%=      5-min Rain = 0
KTH1 170626Z 17002KT 06/01 A30 RMK A01 T00620008  RH  068%=      5-min Rain = 0
KTH1 170627Z 15003KT 06/01 A30 RMK A01 T00640008  RH  068%=      5-min Rain = 0
KTH1 170628Z 15002KT 06/01 A30 RMK A01 T00640008  RH  067%=      5-min Rain = 0
KTH1 170629Z 16002KT 07/01 A30 RMK A01 T00650008  RH  067%=      5-min Rain = 0
KTH1 170630Z 15002KT 07/01 A30 RMK A01 T00650007  RH  067%=      5-min Rain = 0
KTH1 170631Z 15003KT 07/01 A30 RMK A01 T00660008  RH  066%=      5-min Rain = 0
KTH1 170632Z 15003KT 07/01 A30 RMK A01 T00660008  RH  066%=      5-min Rain = 0
KTH1 170633Z 15003KT 07/01 A30 RMK A01 T00660008  RH  067%=      5-min Rain = 0
KTH1 170634Z 15003KT 07/01 A30 RMK A01 T00660008  RH  066%=      5-min Rain = 0
KTH1 170635Z 15003KT 07/01 A30 RMK A01 T00660008  RH  066%=      5-min Rain = 0
KTH1 170636Z 15003KT 07/01 A30 RMK A01 T00660008  RH  067%=      5-min Rain = 0
KTH1 170637Z 15003KT 07/01 A3001 RMK A01 T00650008  RH  067%=      5-min Rain = 0
KTH1 170638Z 15003KT 07/01 A30 RMK A01 T00650008  RH  067%=      5-min Rain = 0
KTH1 170639Z 14003KT 06/01 A30 RMK A01 T00640008  RH  067%=      5-min Rain = 0
KTH1 170640Z 14003KT 06/01 A30 RMK A01 T00640008  RH  068%=      5-min Rain = 0
KTH1 170641Z 14003KT 06/01 A30 RMK A01 T00630008  RH  068%=      5-min Rain = 0
KTH1 170642Z 14004KT 06/01 A30 RMK A01 T00630008  RH  068%=      5-min Rain = 0
KTH1 170643Z 14004KT 06/01 A30 RMK A01 T00630008  RH  068%=      5-min Rain = 0
KTH1 170644Z 14004KT 06/01 A30 RMK A01 T00630009  RH  068%=      5-min Rain = 0
KTH1 170645Z 14004KT 06/01 A3001 RMK A01 T00620008  RH  068%=      5-min Rain = 0
KTH1 170646Z 15004KT 06/01 A3001 RMK A01 T00620008  RH  068%=      5-min Rain = 0
KTH1 170647Z 15004KT 06/01 A3001 RMK A01 T00610008  RH  069%=      5-min Rain = 0
KTH1 170648Z 15004KT 06/01 A3001 RMK A01 T00610008  RH  069%=      5-min Rain = 0
KTH1 170649Z 15004KT 06/01 A3001 RMK A01 T00610008  RH  069%=      5-min Rain = 0
KTH1 170650Z 15004KT 06/01 A30 RMK A01 T00610009  RH  069%=      5-min Rain = 0
KTH1 170651Z 14004KT 06/01 A30 RMK A01 T00600009  RH  069%=      5-min Rain = 0
KTH1 170652Z 14005KT 06/01 A30 RMK A01 T00600009  RH  069%=      5-min Rain = 0
KTH1 170653Z 14005KT 06/01 A30 RMK A01 T00600009  RH  070%=      5-min Rain = 0
KTH1 170654Z 14005KT 06/01 A30 RMK A01 T00600009  RH  070%=      5-min Rain = 0
KTH1 170655Z 14004KT 06/01 A30 RMK A01 T00600009  RH  070%=      5-min Rain = 0
KTH1 170656Z 13003KT 06/01 A30 RMK A01 T00600009  RH  070%=      5-min Rain = 0
KTH1 170657Z 14004KT 06/01 A30 RMK A01 T00600009  RH  070%=      5-min Rain = 0
KTH1 170658Z 14004KT 06/01 A30 RMK A01 T00600009  RH  070%=      5-min Rain = 0
KTH1 170659Z 14005KT 06/01 A30 RMK A01 T00600009  RH  070%=      5-min Rain = 0
KTH1 170700Z 14004KT 06/01 A30 RMK A01 T00600009  RH  070%=      5-min Rain = 0
KTH1 170701Z 14004KT 06/01 A30 RMK A01 T00610010  RH  070%=      5-min Rain = 0
KTH1 170702Z 14004KT 06/01 A30 RMK A01 T00610010  RH  070%=      5-min Rain = 0
KTH1 170703Z 14004KT 06/01 A30 RMK A01 T00610010  RH  070%=      5-min Rain = 0
KTH1 170704Z 14004KT 06/01 A30 RMK A01 T00610010  RH  070%=      5-min Rain = 0
KTH1 170705Z 14004KT 06/01 A30 RMK A01 T00620010  RH  069%=      5-min Rain = 0
KTH1 170706Z 14005KT 06/01 A30 RMK A01 T00620010  RH  069%=      5-min Rain = 0
KTH1 170707Z 14005KT 06/01 A30 RMK A01 T00620010  RH  069%=      5-min Rain = 0
KTH1 170708Z 14005KT 06/01 A30 RMK A01 T00620010  RH  069%=      5-min Rain = 0
KTH1 170709Z 14006KT 06/01 A30 RMK A01 T00620010  RH  069%=      5-min Rain = 0
KTH1 170710Z 14007KT 06/01 A30 RMK A01 T00620010  RH  069%=      5-min Rain = 0
KTH1 170711Z 14006KT 06/01 A30 RMK A01 T00630010  RH  069%=      5-min Rain = 0
KTH1 170712Z 15006KT 06/01 A30 RMK A01 T00630010  RH  069%=      5-min Rain = 0
KTH1 170713Z 15006KT 06/01 A30 RMK A01 T00630010  RH  069%=      5-min Rain = 0
KTH1 170714Z 15007KT 06/01 A30 RMK A01 T00630010  RH  069%=      5-min Rain = 0
KTH1 170715Z 14006KT 06/01 A30 RMK A01 T00630010  RH  069%=      5-min Rain = 0
KTH1 170716Z 15005KT 06/01 A30 RMK A01 T00630010  RH  069%=      5-min Rain = 0
KTH1 170717Z 15005KT 06/01 A30 RMK A01 T00630010  RH  069%=      5-min Rain = 0
KTH1 170718Z 14005KT 06/01 A30 RMK A01 T00630010  RH  069%=      5-min Rain = 0
KTH1 170719Z 15004KT 06/01 A30 RMK A01 T00630010  RH  069%=      5-min Rain = 0
KTH1 170720Z 15004KT 06/01 A30 RMK A01 T00620010  RH  069%=      5-min Rain = 0
KTH1 170721Z 15005KT 06/01 A30 RMK A01 T00620009  RH  069%=      5-min Rain = 0
KTH1 170722Z 14004KT 06/01 A30 RMK A01 T00610010  RH  069%=      5-min Rain = 0
KTH1 170723Z 15005KT 06/01 A30 RMK A01 T00610010  RH  070%=      5-min Rain = 0
KTH1 170724Z 15005KT 06/01 A30 RMK A01 T00610010  RH  070%=      5-min Rain = 0
KTH1 170725Z 15004KT 06/01 A30 RMK A01 T00610010  RH  070%=      5-min Rain = 0
KTH1 170726Z 15004KT 06/01 A30 RMK A01 T00600010  RH  070%=      5-min Rain = 0
KTH1 170727Z 15004KT 06/01 A30 RMK A01 T00600010  RH  070%=      5-min Rain = 0
KTH1 170728Z 16004KT 06/01 A30 RMK A01 T00600010  RH  070%=      5-min Rain = 0
KTH1 170729Z 16004KT 06/01 A30 RMK A01 T00590010  RH  070%=      5-min Rain = 0
KTH1 170730Z 16005KT 06/01 A30 RMK A01 T00590010  RH  071%=      5-min Rain = 0
KTH1 170731Z 16005KT 06/01 A30 RMK A01 T00590010  RH  071%=      5-min Rain = 0
KTH1 170732Z 16005KT 06/01 A30 RMK A01 T00580010  RH  071%=      5-min Rain = 0
KTH1 170733Z 16005KT 06/01 A30 RMK A01 T00580010  RH  071%=      5-min Rain = 0
KTH1 170734Z 16005KT 06/01 A30 RMK A01 T00580010  RH  071%=      5-min Rain = 0
KTH1 170735Z 16005KT 06/01 A30 RMK A01 T00580010  RH  071%=      5-min Rain = 0
KTH1 170736Z 16005KT 06/01 A30 RMK A01 T00570010  RH  072%=      5-min Rain = 0
KTH1 170737Z 16005KT 06/01 A30 RMK A01 T00570010  RH  072%=      5-min Rain = 0
KTH1 170738Z 16005KT 06/01 A3001 RMK A01 T00570010  RH  072%=      5-min Rain = 0
KTH1 170739Z 16005KT 06/01 A3001 RMK A01 T00570010  RH  072%=      5-min Rain = 0
KTH1 170740Z 16005KT 06/01 A3001 RMK A01 T00570010  RH  072%=      5-min Rain = 0
KTH1 170741Z 16005KT 06/01 A3001 RMK A01 T00570010  RH  072%=      5-min Rain = 0
KTH1 170742Z 16004KT 06/01 A3001 RMK A01 T00570010  RH  072%=      5-min Rain = 0
KTH1 170743Z 16004KT 06/01 A3001 RMK A01 T00570010  RH  072%=      5-min Rain = 0
KTH1 170744Z 16004KT 06/01 A3001 RMK A01 T00570011  RH  072%=      5-min Rain = 0
KTH1 170745Z 16004KT 06/01 A3001 RMK A01 T00570011  RH  072%=      5-min Rain = 0
KTH1 170746Z 16004KT 06/01 A3001 RMK A01 T00570011  RH  072%=      5-min Rain = 0
KTH1 170747Z 15004KT 06/01 A30 RMK A01 T00570011  RH  072%=      5-min Rain = 0
KTH1 170748Z 16005KT 06/01 A30 RMK A01 T00560011  RH  072%=      5-min Rain = 0
KTH1 170749Z 16005KT 06/01 A30 RMK A01 T00560011  RH  073%=      5-min Rain = 0
KTH1 170750Z 15005KT 06/01 A30 RMK A01 T00560011  RH  073%=      5-min Rain = 0
KTH1 170751Z 15004KT 06/01 A30 RMK A01 T00550011  RH  073%=      5-min Rain = 0
KTH1 170752Z 15004KT 06/01 A30 RMK A01 T00550011  RH  073%=      5-min Rain = 0
KTH1 170753Z 15005KT 06/01 A30 RMK A01 T00550011  RH  073%=      5-min Rain = 0
KTH1 170754Z 15005KT 05/01 A30 RMK A01 T00540011  RH  073%=      5-min Rain = 0
KTH1 170755Z 15005KT 05/01 A30 RMK A01 T00540011  RH  074%=      5-min Rain = 0
KTH1 170756Z 15004KT 05/01 A30 RMK A01 T00540012  RH  074%=      5-min Rain = 0
KTH1 170757Z 14004KT 05/01 A30 RMK A01 T00540012  RH  074%=      5-min Rain = 0
KTH1 170758Z 14004KT 05/01 A30 RMK A01 T00540011  RH  074%=      5-min Rain = 0
KTH1 170759Z 14004KT 05/01 A30 RMK A01 T00540012  RH  074%=      5-min Rain = 0
KTH1 170800Z 14004KT 05/01 A30 RMK A01 T00540012  RH  074%=      5-min Rain = 0
KTH1 170801Z 14004KT 06/01 A30 RMK A01 T00550012  RH  074%=      5-min Rain = 0
KTH1 170802Z 14005KT 06/01 A30 RMK A01 T00550012  RH  074%=      5-min Rain = 0
KTH1 170803Z 15005KT 06/01 A30 RMK A01 T00550012  RH  073%=      5-min Rain = 0
KTH1 170804Z 14005KT 06/01 A30 RMK A01 T00550011  RH  073%=      5-min Rain = 0
KTH1 170805Z 15006KT 06/01 A30 RMK A01 T00560012  RH  073%=      5-min Rain = 0
KTH1 170806Z 15005KT 06/01 A30 RMK A01 T00560012  RH  073%=      5-min Rain = 0
KTH1 170807Z 15006KT 06/01 A30 RMK A01 T00560012  RH  073%=      5-min Rain = 0
KTH1 170808Z 15006KT 06/01 A30 RMK A01 T00560012  RH  073%=      5-min Rain = 0
KTH1 170809Z 15007KT 06/01 A30 RMK A01 T00560012  RH  073%=      5-min Rain = 0
KTH1 170810Z 15006KT 06/01 A30 RMK A01 T00560012  RH  073%=      5-min Rain = 0
KTH1 170811Z 15006KT 06/01 A30 RMK A01 T00560012  RH  073%=      5-min Rain = 0
KTH1 170812Z 15006KT 06/01 A30 RMK A01 T00560012  RH  073%=      5-min Rain = 0
KTH1 170813Z 15006KT 06/01 A30 RMK A01 T00570013  RH  073%=      5-min Rain = 0
KTH1 170814Z 15006KT 06/01 A30 RMK A01 T00570012  RH  073%=      5-min Rain = 0
KTH1 170815Z 15006KT 06/01 A30 RMK A01 T00570013  RH  073%=      5-min Rain = 0
KTH1 170816Z 15006KT 06/01 A30 RMK A01 T00570013  RH  073%=      5-min Rain = 0
KTH1 170817Z 14006KT 06/01 A30 RMK A01 T00580013  RH  073%=      5-min Rain = 0
KTH1 170818Z 14005KT 06/01 A30 RMK A01 T00580013  RH  073%=      5-min Rain = 0
KTH1 170819Z 14005KT 06/01 A30 RMK A01 T00580013  RH  073%=      5-min Rain = 0
KTH1 170820Z 14006KT 06/01 A30 RMK A01 T00580014  RH  073%=      5-min Rain = 0
KTH1 170821Z 14005KT 06/02 A30 RMK A01 T00590015  RH  073%=      5-min Rain = 0
KTH1 170822Z 13005KT 06/02 A30 RMK A01 T00610015  RH  072%=      5-min Rain = 0
KTH1 170823Z 14005KT 06/02 A30 RMK A01 T00610015  RH  072%=      5-min Rain = 0
KTH1 170824Z 14006KT 06/02 A30 RMK A01 T00620015  RH  072%=      5-min Rain = 0
KTH1 170825Z 14006KT 06/02 A30 RMK A01 T00620015  RH  072%=      5-min Rain = 0
KTH1 170826Z 14005KT 06/02 A30 RMK A01 T00620015  RH  071%=      5-min Rain = 0
KTH1 170827Z 14005KT 06/02 A30 RMK A01 T00620015  RH  072%=      5-min Rain = 0
KTH1 170828Z 14006KT 06/02 A30 RMK A01 T00630015  RH  072%=      5-min Rain = 0
KTH1 170829Z 14006KT 06/02 A30 RMK A01 T00620015  RH  072%=      5-min Rain = 0
KTH1 170830Z 15006KT 06/02 A30 RMK A01 T00620015  RH  072%=      5-min Rain = 0
KTH1 170831Z 14006KT 06/02 A30 RMK A01 T00620015  RH  072%=      5-min Rain = 0
KTH1 170832Z 15006KT 06/01 A30 RMK A01 T00610014  RH  072%=      5-min Rain = 0
KTH1 170833Z 14005KT 06/01 A2999 RMK A01 T00610014  RH  072%=      5-min Rain = 0
KTH1 170834Z 14005KT 06/01 A2999 RMK A01 T00600014  RH  072%=      5-min Rain = 0
KTH1 170835Z 14005KT 06/01 A2999 RMK A01 T00590014  RH  073%=      5-min Rain = 0
KTH1 170836Z 14005KT 06/01 A2999 RMK A01 T00590014  RH  073%=      5-min Rain = 0
KTH1 170837Z 14005KT 06/02 A30 RMK A01 T00590015  RH  073%=      5-min Rain = 0
KTH1 170838Z 15005KT 06/01 A30 RMK A01 T00580014  RH  073%=      5-min Rain = 0
KTH1 170839Z 15005KT 06/01 A30 RMK A01 T00580014  RH  074%=      5-min Rain = 0
KTH1 170840Z 14005KT 06/02 A30 RMK A01 T00580015  RH  074%=      5-min Rain = 0
KTH1 170841Z 14005KT 06/02 A30 RMK A01 T00580015  RH  074%=      5-min Rain = 0
KTH1 170842Z 14004KT 06/02 A30 RMK A01 T00580015  RH  074%=      5-min Rain = 0
KTH1 170843Z 14003KT 06/02 A30 RMK A01 T00580015  RH  074%=      5-min Rain = 0
KTH1 170844Z 15004KT 06/02 A30 RMK A01 T00580015  RH  074%=      5-min Rain = 0
KTH1 170845Z 15004KT 06/01 A30 RMK A01 T00570014  RH  074%=      5-min Rain = 0
KTH1 170846Z 15004KT 06/01 A30 RMK A01 T00570014  RH  074%=      5-min Rain = 0
KTH1 170847Z 15004KT 06/01 A30 RMK A01 T00560014  RH  074%=      5-min Rain = 0
KTH1 170848Z 15004KT 06/01 A30 RMK A01 T00560014  RH  075%=      5-min Rain = 0
KTH1 170849Z 15004KT 06/01 A30 RMK A01 T00550014  RH  075%=      5-min Rain = 0
KTH1 170850Z 15003KT 06/01 A30 RMK A01 T00550014  RH  075%=      5-min Rain = 0
KTH1 170851Z 15003KT 05/01 A30 RMK A01 T00540014  RH  075%=      5-min Rain = 0
KTH1 170852Z 15004KT 05/01 A30 RMK A01 T00540014  RH  075%=      5-min Rain = 0
KTH1 170853Z 15004KT 05/01 A30 RMK A01 T00540014  RH  076%=      5-min Rain = 0
KTH1 170854Z 15005KT 05/01 A30 RMK A01 T00540014  RH  076%=      5-min Rain = 0
KTH1 170855Z 16005KT 05/01 A2999 RMK A01 T00530014  RH  076%=      5-min Rain = 0
KTH1 170856Z 16005KT 05/01 A2999 RMK A01 T00530014  RH  076%=      5-min Rain = 0
KTH1 170857Z 16004KT 05/02 A2999 RMK A01 T00530015  RH  076%=      5-min Rain = 0
KTH1 170858Z 16004KT 05/02 A2999 RMK A01 T00530015  RH  076%=      5-min Rain = 0
KTH1 170859Z 16004KT 05/01 A2999 RMK A01 T00530014  RH  076%=      5-min Rain = 0
KTH1 170900Z 16004KT 05/01 A2999 RMK A01 T00530014  RH  076%=      5-min Rain = 0
KTH1 170901Z 16005KT 05/01 A2999 RMK A01 T00520014  RH  076%=      5-min Rain = 0
KTH1 170902Z 15004KT 05/01 A2999 RMK A01 T00520014  RH  076%=      5-min Rain = 0
KTH1 170903Z 15004KT 05/01 A2999 RMK A01 T00510014  RH  077%=      5-min Rain = 0
KTH1 170904Z 15004KT 05/01 A2999 RMK A01 T00510014  RH  077%=      5-min Rain = 0
KTH1 170905Z 14004KT 05/01 A2999 RMK A01 T00510014  RH  077%=      5-min Rain = 0
KTH1 170906Z 15004KT 05/01 A2999 RMK A01 T00510014  RH  077%=      5-min Rain = 0
KTH1 170907Z 15004KT 05/01 A2999 RMK A01 T00510014  RH  077%=      5-min Rain = 0
KTH1 170908Z 15004KT 05/02 A2999 RMK A01 T00510015  RH  078%=      5-min Rain = 0
KTH1 170909Z 14004KT 05/02 A2999 RMK A01 T00510015  RH  078%=      5-min Rain = 0
KTH1 170910Z 14004KT 05/02 A2999 RMK A01 T00510015  RH  077%=      5-min Rain = 0
KTH1 170911Z 15004KT 05/02 A2999 RMK A01 T00510015  RH  078%=      5-min Rain = 0
KTH1 170912Z 16003KT 05/02 A2999 RMK A01 T00510015  RH  078%=      5-min Rain = 0
KTH1 170913Z 16003KT 05/02 A2999 RMK A01 T00510016  RH  078%=      5-min Rain = 0
KTH1 170914Z 15003KT 05/02 A2999 RMK A01 T00510016  RH  078%=      5-min Rain = 0
KTH1 170915Z 16003KT 05/02 A2999 RMK A01 T00510016  RH  078%=      5-min Rain = 0
KTH1 170916Z 16003KT 05/02 A2999 RMK A01 T00510016  RH  078%=      5-min Rain = 0
KTH1 170917Z 15003KT 05/02 A2999 RMK A01 T00510016  RH  078%=      5-min Rain = 0
KTH1 170918Z 16003KT 05/02 A2999 RMK A01 T00510015  RH  078%=      5-min Rain = 0
KTH1 170919Z 16003KT 05/02 A2999 RMK A01 T00510016  RH  078%=      5-min Rain = 0
KTH1 170920Z 18003KT 05/02 A2999 RMK A01 T00510015  RH  078%=      5-min Rain = 0
KTH1 170921Z 18002KT 05/02 A2999 RMK A01 T00510016  RH  078%=      5-min Rain = 0
KTH1 170922Z 18002KT 05/02 A2999 RMK A01 T00510015  RH  078%=      5-min Rain = 0
KTH1 170923Z 18002KT 05/02 A2999 RMK A01 T00510016  RH  078%=      5-min Rain = 0
KTH1 170924Z 17002KT 05/02 A2999 RMK A01 T00520016  RH  078%=      5-min Rain = 0
KTH1 170925Z 20001KT 05/02 A2999 RMK A01 T00520017  RH  078%=      5-min Rain = 0
KTH1 170926Z 20001KT 05/02 A2999 RMK A01 T00530017  RH  078%=      5-min Rain = 0
KTH1 170927Z 21001KT 05/02 A2999 RMK A01 T00530017  RH  077%=      5-min Rain = 0
KTH1 170928Z 18001KT 05/02 A2999 RMK A01 T00530017  RH  077%=      5-min Rain = 0
KTH1 170929Z 19002KT 05/02 A2999 RMK A01 T00530017  RH  077%=      5-min Rain = 0
KTH1 170930Z 19002KT 05/02 A2999 RMK A01 T00530017  RH  078%=      5-min Rain = 0
KTH1 170931Z 19001KT 05/02 A2999 RMK A01 T00530017  RH  077%=      5-min Rain = 0
KTH1 170932Z 21000KT 05/02 A2999 RMK A01 T00530017  RH  077%=      5-min Rain = 0
KTH1 170933Z 17002KT 05/02 A2999 RMK A01 T00530017  RH  077%=      5-min Rain = 0
KTH1 170934Z 17002KT 05/02 A2998 RMK A01 T00530017  RH  078%=      5-min Rain = 0
KTH1 170935Z 19002KT 05/02 A2998 RMK A01 T00530018  RH  078%=      5-min Rain = 0
KTH1 170936Z 17001KT 05/02 A2998 RMK A01 T00530017  RH  078%=      5-min Rain = 0
KTH1 170937Z 17002KT 05/02 A2998 RMK A01 T00530017  RH  078%=      5-min Rain = 0
KTH1 170938Z 18002KT 05/02 A2998 RMK A01 T00530018  RH  078%=      5-min Rain = 0
KTH1 170939Z 18003KT 05/02 A2998 RMK A01 T00530018  RH  078%=      5-min Rain = 0
KTH1 170940Z 18003KT 05/02 A2998 RMK A01 T00530018  RH  078%=      5-min Rain = 0
KTH1 170941Z 17003KT 05/02 A2998 RMK A01 T00530018  RH  078%=      5-min Rain = 0
KTH1 170942Z 18003KT 05/02 A2998 RMK A01 T00530019  RH  078%=      5-min Rain = 0
KTH1 170943Z 17004KT 05/02 A2998 RMK A01 T00530019  RH  078%=      5-min Rain = 0
KTH1 170944Z 17004KT 05/02 A2998 RMK A01 T00540019  RH  078%=      5-min Rain = 0
KTH1 170945Z 17004KT 05/02 A2998 RMK A01 T00540019  RH  078%=      5-min Rain = 0
KTH1 170946Z 17004KT 06/02 A2998 RMK A01 T00550019  RH  078%=      5-min Rain = 0
KTH1 170947Z 17003KT 06/02 A2998 RMK A01 T00550019  RH  078%=      5-min Rain = 0
KTH1 170948Z 17003KT 06/02 A2998 RMK A01 T00550019  RH  077%=      5-min Rain = 0
KTH1 170949Z 17003KT 06/02 A2998 RMK A01 T00550019  RH  077%=      5-min Rain = 0
KTH1 170950Z 17003KT 06/02 A2998 RMK A01 T00560019  RH  077%=      5-min Rain = 0
KTH1 170951Z 17003KT 06/02 A2998 RMK A01 T00560019  RH  077%=      5-min Rain = 0
KTH1 170952Z 16002KT 06/02 A2998 RMK A01 T00560019  RH  077%=      5-min Rain = 0
KTH1 170953Z 17002KT 06/02 A2998 RMK A01 T00560019  RH  077%=      5-min Rain = 0
KTH1 170954Z 18003KT 06/02 A2999 RMK A01 T00560019  RH  077%=      5-min Rain = 0
KTH1 170955Z 18003KT 06/02 A2999 RMK A01 T00560018  RH  077%=      5-min Rain = 0
KTH1 170956Z 16002KT 06/02 A2999 RMK A01 T00560018  RH  077%=      5-min Rain = 0
KTH1 170957Z 18002KT 06/02 A2999 RMK A01 T00560018  RH  076%=      5-min Rain = 0
KTH1 170958Z 17002KT 06/02 A2999 RMK A01 T00560018  RH  077%=      5-min Rain = 0
KTH1 170959Z 19001KT 06/02 A2999 RMK A01 T00560018  RH  077%=      5-min Rain = 0
KTH1 171000Z 19002KT 06/02 A2999 RMK A01 T00560018  RH  077%=      5-min Rain = 0
KTH1 171001Z 17002KT 06/02 A2999 RMK A01 T00550017  RH  077%=      5-min Rain = 0
KTH1 171002Z 20002KT 06/02 A2999 RMK A01 T00550017  RH  077%=      5-min Rain = 0
KTH1 171003Z 18002KT 06/02 A2999 RMK A01 T00550018  RH  077%=      5-min Rain = 0
KTH1 171004Z 17002KT 06/02 A2999 RMK A01 T00550018  RH  077%=      5-min Rain = 0
KTH1 171005Z 18001KT 06/02 A2999 RMK A01 T00550018  RH  077%=      5-min Rain = 0
KTH1 171006Z 21001KT 06/02 A2999 RMK A01 T00550017  RH  077%=      5-min Rain = 0
KTH1 171007Z 22002KT 06/02 A2999 RMK A01 T00550018  RH  077%=      5-min Rain = 0
KTH1 171008Z 22002KT 06/02 A2999 RMK A01 T00550018  RH  077%=      5-min Rain = 0
KTH1 171009Z 23002KT 06/02 A2999 RMK A01 T00560019  RH  077%=      5-min Rain = 0
KTH1 171010Z 23003KT 06/02 A2999 RMK A01 T00570020  RH  077%=      5-min Rain = 0
KTH1 171011Z 22003KT 06/02 A2999 RMK A01 T00580019  RH  076%=      5-min Rain = 0
KTH1 171012Z 23003KT 06/02 A2999 RMK A01 T00580018  RH  076%=      5-min Rain = 0
KTH1 171013Z 23003KT 06/02 A2999 RMK A01 T00580019  RH  076%=      5-min Rain = 0
KTH1 171014Z 25002KT 06/02 A2999 RMK A01 T00580019  RH  076%=      5-min Rain = 0
KTH1 171015Z 23002KT 06/02 A2999 RMK A01 T00580020  RH  077%=      5-min Rain = 0
KTH1 171016Z 22002KT 06/02 A2999 RMK A01 T00580020  RH  076%=      5-min Rain = 0
KTH1 171017Z 22003KT 06/02 A2999 RMK A01 T00580019  RH  076%=      5-min Rain = 0
KTH1 171018Z 21002KT 06/02 A2999 RMK A01 T00580020  RH  077%=      5-min Rain = 0
KTH1 171019Z 23003KT 06/02 A30 RMK A01 T00580019  RH  076%=      5-min Rain = 0
KTH1 171020Z 24002KT 06/02 A30 RMK A01 T00570018  RH  076%=      5-min Rain = 0
KTH1 171021Z 25003KT 06/02 A30 RMK A01 T00560019  RH  077%=      5-min Rain = 0
KTH1 171022Z 25002KT 06/02 A30 RMK A01 T00560021  RH  078%=      5-min Rain = 0
KTH1 171023Z 25002KT 06/02 A30 RMK A01 T00560021  RH  078%=      5-min Rain = 0
KTH1 171024Z 24002KT 06/02 A30 RMK A01 T00560023  RH  079%=      5-min Rain = 0
KTH1 171025Z 24002KT 06/02 A2999 RMK A01 T00560022  RH  079%=      5-min Rain = 0
KTH1 171026Z 23003KT 06/02 A2999 RMK A01 T00550022  RH  079%=      5-min Rain = 0
KTH1 171027Z 23003KT 06/02 A2999 RMK A01 T00550023  RH  080%=      5-min Rain = 0
KTH1 171028Z 22004KT 06/02 A2999 RMK A01 T00550022  RH  080%=      5-min Rain = 0
KTH1 171029Z 21004KT 05/02 A2999 RMK A01 T00540022  RH  080%=      5-min Rain = 0
KTH1 171030Z 22004KT 05/02 A2999 RMK A01 T00530021  RH  080%=      5-min Rain = 0
KTH1 171031Z 22004KT 05/02 A2999 RMK A01 T00520021  RH  081%=      5-min Rain = 0
KTH1 171032Z 21004KT 05/02 A2999 RMK A01 T00510020  RH  081%=      5-min Rain = 0
KTH1 171033Z 21004KT 05/02 A2999 RMK A01 T00500018  RH  080%=      5-min Rain = 0
KTH1 171034Z 21004KT 05/02 A2999 RMK A01 T00490018  RH  080%=      5-min Rain = 0
KTH1 171035Z 21004KT 05/02 A2999 RMK A01 T00480017  RH  081%=      5-min Rain = 0
KTH1 171036Z 21004KT 05/02 A2999 RMK A01 T00480017  RH  080%=      5-min Rain = 0
KTH1 171037Z 21004KT 05/02 A2999 RMK A01 T00470016  RH  080%=      5-min Rain = 0
KTH1 171038Z 23004KT 05/02 A2999 RMK A01 T00480016  RH  080%=      5-min Rain = 0
KTH1 171039Z 24004KT 05/02 A2999 RMK A01 T00470016  RH  080%=      5-min Rain = 0
KTH1 171040Z 23004KT 05/02 A2999 RMK A01 T00480017  RH  080%=      5-min Rain = 0
KTH1 171041Z 23004KT 05/02 A2999 RMK A01 T00480016  RH  080%=      5-min Rain = 0
KTH1 171042Z 23004KT 05/02 A2999 RMK A01 T00480015  RH  080%=      5-min Rain = 0
KTH1 171043Z 23004KT 05/02 A2999 RMK A01 T00480015  RH  079%=      5-min Rain = 0
KTH1 171044Z 23005KT 05/02 A2999 RMK A01 T00480015  RH  079%=      5-min Rain = 0
KTH1 171045Z 23005KT 05/01 A2999 RMK A01 T00470014  RH  079%=      5-min Rain = 0
KTH1 171046Z 24005KT 05/01 A2999 RMK A01 T00470014  RH  079%=      5-min Rain = 0
KTH1 171047Z 24004KT 05/01 A2999 RMK A01 T00470014  RH  079%=      5-min Rain = 0
KTH1 171048Z 25004KT 05/01 A2999 RMK A01 T00460013  RH  079%=      5-min Rain = 0
KTH1 171049Z 25004KT 05/01 A2999 RMK A01 T00460014  RH  080%=      5-min Rain = 0
KTH1 171050Z 25003KT 05/02 A30 RMK A01 T00460015  RH  080%=      5-min Rain = 0
KTH1 171051Z 25003KT 05/02 A30 RMK A01 T00460016  RH  081%=      5-min Rain = 0
KTH1 171052Z 25002KT 05/02 A30 RMK A01 T00460016  RH  081%=      5-min Rain = 0
KTH1 171053Z 25002KT 05/02 A30 RMK A01 T00460016  RH  081%=      5-min Rain = 0
KTH1 171054Z 25002KT 05/02 A30 RMK A01 T00450016  RH  082%=      5-min Rain = 0
KTH1 171055Z 26002KT 05/02 A30 RMK A01 T00450017  RH  082%=      5-min Rain = 0
KTH1 171056Z 26002KT 05/02 A30 RMK A01 T00450018  RH  082%=      5-min Rain = 0
KTH1 171057Z 27002KT 05/02 A30 RMK A01 T00450018  RH  083%=      5-min Rain = 0
KTH1 171058Z 25002KT 05/02 A30 RMK A01 T00450018  RH  083%=      5-min Rain = 0
KTH1 171059Z 25003KT 05/02 A30 RMK A01 T00450019  RH  083%=      5-min Rain = 0
KTH1 171100Z 25003KT 04/02 A30 RMK A01 T00440018  RH  083%=      5-min Rain = 0
KTH1 171101Z 25003KT 04/02 A30 RMK A01 T00440019  RH  084%=      5-min Rain = 0
KTH1 171102Z 26003KT 04/02 A30 RMK A01 T00430019  RH  084%=      5-min Rain = 0
KTH1 171103Z 25004KT 04/02 A30 RMK A01 T00430019  RH  084%=      5-min Rain = 0
KTH1 171104Z 25003KT 04/02 A30 RMK A01 T00430019  RH  084%=      5-min Rain = 0
KTH1 171105Z 24003KT 04/02 A30 RMK A01 T00430019  RH  084%=      5-min Rain = 0
KTH1 171106Z 24004KT 04/02 A30 RMK A01 T00430018  RH  084%=      5-min Rain = 0
KTH1 171107Z 24004KT 04/02 A30 RMK A01 T00420017  RH  084%=      5-min Rain = 0
KTH1 171108Z 24004KT 04/02 A30 RMK A01 T00420016  RH  083%=      5-min Rain = 0
KTH1 171109Z 25003KT 04/02 A30 RMK A01 T00410015  RH  083%=      5-min Rain = 0
KTH1 171110Z 25003KT 04/01 A30 RMK A01 T00410014  RH  083%=      5-min Rain = 0
KTH1 171111Z 26003KT 04/01 A30 RMK A01 T00400014  RH  083%=      5-min Rain = 0
KTH1 171112Z 26002KT 04/02 A30 RMK A01 T00400015  RH  084%=      5-min Rain = 0
KTH1 171113Z 26002KT 04/02 A30 RMK A01 T00400015  RH  084%=      5-min Rain = 0
KTH1 171114Z 25002KT 04/02 A30 RMK A01 T00400015  RH  084%=      5-min Rain = 0
KTH1 171115Z 25002KT 04/02 A30 RMK A01 T00390015  RH  084%=      5-min Rain = 0
KTH1 171116Z 25003KT 04/01 A30 RMK A01 T00390014  RH  084%=      5-min Rain = 0
KTH1 171117Z 25003KT 04/01 A30 RMK A01 T00390014  RH  084%=      5-min Rain = 0
KTH1 171118Z 25003KT 04/01 A30 RMK A01 T00380013  RH  084%=      5-min Rain = 0
KTH1 171119Z 24003KT 04/01 A30 RMK A01 T00380012  RH  084%=      5-min Rain = 0
KTH1 171120Z 24004KT 04/01 A30 RMK A01 T00370012  RH  083%=      5-min Rain = 0
KTH1 171121Z 24004KT 04/01 A30 RMK A01 T00370011  RH  083%=      5-min Rain = 0
KTH1 171122Z 24004KT 04/01 A30 RMK A01 T00370011  RH  083%=      5-min Rain = 0
KTH1 171123Z 24003KT 04/01 A30 RMK A01 T00370010  RH  083%=      5-min Rain = 0
KTH1 171124Z 24004KT 04/01 A30 RMK A01 T00360010  RH  083%=      5-min Rain = 0
KTH1 171125Z 24004KT 04/01 A30 RMK A01 T00360009  RH  083%=      5-min Rain = 0
KTH1 171126Z 23004KT 04/01 A30 RMK A01 T00360009  RH  083%=      5-min Rain = 0
KTH1 171127Z 23004KT 04/01 A30 RMK A01 T00360009  RH  083%=      5-min Rain = 0
KTH1 171128Z 23004KT 04/01 A30 RMK A01 T00350009  RH  083%=      5-min Rain = 0
KTH1 171129Z 23004KT 04/01 A30 RMK A01 T00350009  RH  083%=      5-min Rain = 0
KTH1 171130Z 22004KT 04/01 A30 RMK A01 T00350009  RH  083%=      5-min Rain = 0
KTH1 171131Z 22005KT 04/01 A30 RMK A01 T00350008  RH  083%=      5-min Rain = 0
KTH1 171132Z 22004KT 03/01 A30 RMK A01 T00340007  RH  083%=      5-min Rain = 0
KTH1 171133Z 22004KT 03/01 A30 RMK A01 T00330007  RH  083%=      5-min Rain = 0
KTH1 171134Z 22004KT 03/01 A30 RMK A01 T00330008  RH  084%=      5-min Rain = 0
KTH1 171135Z 22004KT 03/01 A30 RMK A01 T00320008  RH  084%=      5-min Rain = 0
KTH1 171136Z 21004KT 03/01 A30 RMK A01 T00320008  RH  084%=      5-min Rain = 0
KTH1 171137Z 22004KT 03/01 A30 RMK A01 T00320008  RH  084%=      5-min Rain = 0
KTH1 171138Z 21004KT 03/01 A30 RMK A01 T00320008  RH  084%=      5-min Rain = 0
KTH1 171139Z 21003KT 03/01 A30 RMK A01 T00320008  RH  084%=      5-min Rain = 0
KTH1 171140Z 22003KT 03/01 A30 RMK A01 T00320008  RH  084%=      5-min Rain = 0
KTH1 171141Z 22003KT 03/01 A30 RMK A01 T00320008  RH  084%=      5-min Rain = 0
KTH1 171142Z 22003KT 03/01 A30 RMK A01 T00320009  RH  084%=      5-min Rain = 0
KTH1 171143Z 22003KT 03/01 A30 RMK A01 T00320009  RH  085%=      5-min Rain = 0
KTH1 171144Z 22004KT 03/01 A30 RMK A01 T00320009  RH  084%=      5-min Rain = 0
KTH1 171145Z 22004KT 03/01 A30 RMK A01 T00320009  RH  084%=      5-min Rain = 0
KTH1 171146Z 23004KT 03/01 A30 RMK A01 T00330009  RH  084%=      5-min Rain = 0
KTH1 171147Z 23004KT 03/01 A30 RMK A01 T00330008  RH  084%=      5-min Rain = 0
KTH1 171148Z 23004KT 03/01 A30 RMK A01 T00330008  RH  084%=      5-min Rain = 0
KTH1 171149Z 23004KT 03/01 A30 RMK A01 T00330008  RH  084%=      5-min Rain = 0
KTH1 171150Z 23004KT 03/01 A30 RMK A01 T00330008  RH  084%=      5-min Rain = 0
KTH1 171151Z 23004KT 03/01 A30 RMK A01 T00340009  RH  084%=      5-min Rain = 0
KTH1 171152Z 23003KT 03/01 A30 RMK A01 T00340009  RH  084%=      5-min Rain = 0
KTH1 171153Z 23004KT 03/01 A3001 RMK A01 T00340009  RH  084%=      5-min Rain = 0
KTH1 171154Z 23003KT 03/01 A3001 RMK A01 T00340011  RH  084%=      5-min Rain = 0
KTH1 171155Z 23004KT 03/01 A3001 RMK A01 T00340011  RH  085%=      5-min Rain = 0
KTH1 171156Z 22003KT 03/01 A3001 RMK A01 T00340012  RH  085%=      5-min Rain = 0
KTH1 171157Z 21005KT 03/01 A30 RMK A01 T00330011  RH  085%=      5-min Rain = 0
KTH1 171158Z 21005KT 03/01 A30 RMK A01 T00330010  RH  085%=      5-min Rain = 0
KTH1 171159Z 21005KT 03/01 A30 RMK A01 T00320010  RH  085%=      5-min Rain = 0
KTH1 171200Z 21004KT 03/01 A30 RMK A01 T00320010  RH  085%=      5-min Rain = 0
KTH1 171201Z 21004KT 03/01 A3001 RMK A01 T00310009  RH  085%=      5-min Rain = 0
KTH1 171202Z 21004KT 03/01 A3001 RMK A01 T00310009  RH  085%=      5-min Rain = 0
KTH1 171203Z 22004KT 03/01 A3001 RMK A01 T00310008  RH  085%=      5-min Rain = 0
KTH1 171204Z 22004KT 03/01 A3001 RMK A01 T00310008  RH  085%=      5-min Rain = 0
KTH1 171205Z 21004KT 03/01 A3001 RMK A01 T00310009  RH  086%=      5-min Rain = 0
KTH1 171206Z 21004KT 03/01 A30 RMK A01 T00310009  RH  085%=      5-min Rain = 0
KTH1 171207Z 21004KT 03/01 A3001 RMK A01 T00320010  RH  085%=      5-min Rain = 0
KTH1 171208Z 22004KT 03/01 A3001 RMK A01 T00330009  RH  085%=      5-min Rain = 0
KTH1 171209Z 22004KT 03/01 A3001 RMK A01 T00330009  RH  085%=      5-min Rain = 0
KTH1 171210Z 22004KT 03/01 A3001 RMK A01 T00330010  RH  085%=      5-min Rain = 0
KTH1 171211Z 22004KT 03/01 A3001 RMK A01 T00340010  RH  085%=      5-min Rain = 0
KTH1 171212Z 22004KT 03/01 A3001 RMK A01 T00340010  RH  084%=      5-min Rain = 0
KTH1 171213Z 22004KT 03/01 A3001 RMK A01 T00340010  RH  084%=      5-min Rain = 0
KTH1 171214Z 21005KT 03/01 A3001 RMK A01 T00340010  RH  084%=      5-min Rain = 0
KTH1 171215Z 21004KT 04/01 A3001 RMK A01 T00350011  RH  084%=      5-min Rain = 0
KTH1 171216Z 21005KT 03/01 A3001 RMK A01 T00340010  RH  084%=      5-min Rain = 0
KTH1 171217Z 22004KT 04/01 A3001 RMK A01 T00350010  RH  084%=      5-min Rain = 0
KTH1 171218Z 22004KT 04/01 A3001 RMK A01 T00350011  RH  084%=      5-min Rain = 0
KTH1 171219Z 21004KT 04/01 A3001 RMK A01 T00350011  RH  084%=      5-min Rain = 0
KTH1 171220Z 21004KT 04/01 A3001 RMK A01 T00350011  RH  084%=      5-min Rain = 0
KTH1 171221Z 21005KT 04/01 A3001 RMK A01 T00350011  RH  084%=      5-min Rain = 0
KTH1 171222Z 21004KT 04/01 A3001 RMK A01 T00360011  RH  084%=      5-min Rain = 0
KTH1 171223Z 22004KT 04/01 A3001 RMK A01 T00360011  RH  084%=      5-min Rain = 0
KTH1 171224Z 22004KT 04/01 A3001 RMK A01 T00360011  RH  084%=      5-min Rain = 0
KTH1 171225Z 22004KT 04/01 A3001 RMK A01 T00350011  RH  084%=      5-min Rain = 0
KTH1 171226Z 22004KT 04/01 A3001 RMK A01 T00360011  RH  084%=      5-min Rain = 0
KTH1 171227Z 22004KT 04/01 A3001 RMK A01 T00360012  RH  084%=      5-min Rain = 0
KTH1 171228Z 23004KT 04/01 A3001 RMK A01 T00360012  RH  084%=      5-min Rain = 0
KTH1 171229Z 24004KT 04/01 A3002 RMK A01 T00360014  RH  085%=      5-min Rain = 0
KTH1 171230Z 24005KT 04/02 A3002 RMK A01 T00370015  RH  086%=      5-min Rain = 0
KTH1 171231Z 24004KT 04/02 A3002 RMK A01 T00370017  RH  087%=      5-min Rain = 0
KTH1 171232Z 23005KT 04/02 A3002 RMK A01 T00380019  RH  087%=      5-min Rain = 0
KTH1 171233Z 23005KT 04/02 A3002 RMK A01 T00380019  RH  087%=      5-min Rain = 0
KTH1 171234Z 23005KT 04/02 A3002 RMK A01 T00390019  RH  087%=      5-min Rain = 0
KTH1 171235Z 23005KT 04/02 A3002 RMK A01 T00390018  RH  086%=      5-min Rain = 0
KTH1 171236Z 23005KT 04/02 A3002 RMK A01 T00390018  RH  086%=      5-min Rain = 0
KTH1 171237Z 23006KT 04/02 A3002 RMK A01 T00390018  RH  086%=      5-min Rain = 0
KTH1 171238Z 22005KT 04/02 A3002 RMK A01 T00390018  RH  086%=      5-min Rain = 0
KTH1 171239Z 22005KT 04/02 A3002 RMK A01 T00390019  RH  086%=      5-min Rain = 0
KTH1 171240Z 22004KT 04/02 A3002 RMK A01 T00390018  RH  086%=      5-min Rain = 0
KTH1 171241Z 23005KT 04/02 A3002 RMK A01 T00390018  RH  086%=      5-min Rain = 0
KTH1 171242Z 23005KT 04/02 A3003 RMK A01 T00390018  RH  086%=      5-min Rain = 0
KTH1 171243Z 23005KT 04/02 A3003 RMK A01 T00380018  RH  087%=      5-min Rain = 0
KTH1 171244Z 23006KT 04/02 A3003 RMK A01 T00380018  RH  087%=      5-min Rain = 0
KTH1 171245Z 22005KT 04/02 A3003 RMK A01 T00380017  RH  086%=      5-min Rain = 0
KTH1 171246Z 23005KT 04/02 A3002 RMK A01 T00370016  RH  086%=      5-min Rain = 0
KTH1 171247Z 22005KT 04/02 A3002 RMK A01 T00370015  RH  086%=      5-min Rain = 0
KTH1 171248Z 22005KT 04/01 A3002 RMK A01 T00370014  RH  085%=      5-min Rain = 0
KTH1 171249Z 22005KT 04/01 A3002 RMK A01 T00370013  RH  084%=      5-min Rain = 0
KTH1 171250Z 22006KT 04/01 A3002 RMK A01 T00370013  RH  084%=      5-min Rain = 0
KTH1 171251Z 22005KT 04/01 A3002 RMK A01 T00370013  RH  084%=      5-min Rain = 0
KTH1 171252Z 22005KT 04/01 A3002 RMK A01 T00380013  RH  084%=      5-min Rain = 0
KTH1 171253Z 22005KT 04/01 A3002 RMK A01 T00380013  RH  084%=      5-min Rain = 0
KTH1 171254Z 23005KT 04/01 A3002 RMK A01 T00380013  RH  084%=      5-min Rain = 0
KTH1 171255Z 23005KT 04/01 A3003 RMK A01 T00380014  RH  084%=      5-min Rain = 0
KTH1 171256Z 23005KT 04/01 A3003 RMK A01 T00380014  RH  084%=      5-min Rain = 0
KTH1 171257Z 22005KT 04/02 A3003 RMK A01 T00380015  RH  085%=      5-min Rain = 0
KTH1 171258Z 22005KT 04/01 A3003 RMK A01 T00380014  RH  084%=      5-min Rain = 0
KTH1 171259Z 23005KT 04/01 A3003 RMK A01 T00380014  RH  084%=      5-min Rain = 0
KTH1 171300Z 23004KT 04/01 A3003 RMK A01 T00380014  RH  084%=      5-min Rain = 0
KTH1 171301Z 23005KT 04/02 A3003 RMK A01 T00380015  RH  085%=      5-min Rain = 0
KTH1 171302Z 23005KT 04/02 A3003 RMK A01 T00380016  RH  085%=      5-min Rain = 0
KTH1 171303Z 23005KT 04/02 A3003 RMK A01 T00380017  RH  086%=      5-min Rain = 0
KTH1 171304Z 23005KT 04/02 A3003 RMK A01 T00380018  RH  087%=      5-min Rain = 0
KTH1 171305Z 23005KT 04/02 A3003 RMK A01 T00380018  RH  087%=      5-min Rain = 0
KTH1 171306Z 23004KT 04/02 A3003 RMK A01 T00380018  RH  087%=      5-min Rain = 0
KTH1 171307Z 24005KT 04/02 A3003 RMK A01 T00380018  RH  087%=      5-min Rain = 0
KTH1 171308Z 24004KT 04/02 A3003 RMK A01 T00380018  RH  087%=      5-min Rain = 0
KTH1 171309Z 24004KT 04/02 A3003 RMK A01 T00380018  RH  087%=      5-min Rain = 0
KTH1 171310Z 25004KT 04/02 A3003 RMK A01 T00370018  RH  087%=      5-min Rain = 0
KTH1 171311Z 24004KT 04/02 A3003 RMK A01 T00370018  RH  087%=      5-min Rain = 0
KTH1 171312Z 24003KT 04/02 A3003 RMK A01 T00370018  RH  088%=      5-min Rain = 0
KTH1 171313Z 25003KT 04/02 A3003 RMK A01 T00370019  RH  088%=      5-min Rain = 0
KTH1 171314Z 24003KT 04/02 A3003 RMK A01 T00370019  RH  087%=      5-min Rain = 0
KTH1 171315Z 23003KT 04/02 A3003 RMK A01 T00370017  RH  087%=      5-min Rain = 0
KTH1 171316Z 23004KT 04/02 A3003 RMK A01 T00370017  RH  087%=      5-min Rain = 0
KTH1 171317Z 22004KT 04/02 A3003 RMK A01 T00370015  RH  086%=      5-min Rain = 0
KTH1 171318Z 22003KT 04/01 A3003 RMK A01 T00360014  RH  086%=      5-min Rain = 0
KTH1 171319Z 22004KT 04/01 A3003 RMK A01 T00350013  RH  085%=      5-min Rain = 0
KTH1 171320Z 22004KT 04/01 A3003 RMK A01 T00350013  RH  085%=      5-min Rain = 0
KTH1 171321Z 21004KT 04/01 A3003 RMK A01 T00350013  RH  085%=      5-min Rain = 0
KTH1 171322Z 21004KT 04/01 A3003 RMK A01 T00350012  RH  085%=      5-min Rain = 0
KTH1 171323Z 22002KT 04/01 A3003 RMK A01 T00350012  RH  085%=      5-min Rain = 0
KTH1 171324Z 21003KT 04/01 A3003 RMK A01 T00350012  RH  085%=      5-min Rain = 0
KTH1 171325Z 22003KT 04/01 A3003 RMK A01 T00350012  RH  085%=      5-min Rain = 0
KTH1 171326Z 22003KT 03/01 A3003 RMK A01 T00340011  RH  085%=      5-min Rain = 0
KTH1 171327Z 24003KT 03/01 A3003 RMK A01 T00340011  RH  085%=      5-min Rain = 0
KTH1 171328Z 25003KT 03/01 A3004 RMK A01 T00340011  RH  085%=      5-min Rain = 0
KTH1 171329Z 26002KT 03/01 A3004 RMK A01 T00340012  RH  086%=      5-min Rain = 0
KTH1 171330Z 26002KT 04/01 A3004 RMK A01 T00350014  RH  086%=      5-min Rain = 0
KTH1 171331Z 26002KT 04/02 A3004 RMK A01 T00360015  RH  086%=      5-min Rain = 0
KTH1 171332Z 26002KT 04/02 A3004 RMK A01 T00360016  RH  087%=      5-min Rain = 0
KTH1 171333Z 25002KT 04/02 A3004 RMK A01 T00370017  RH  087%=      5-min Rain = 0
KTH1 171334Z 25003KT 04/02 A3004 RMK A01 T00380018  RH  087%=      5-min Rain = 0
KTH1 171335Z 24003KT 04/02 A3004 RMK A01 T00390018  RH  087%=      5-min Rain = 0
KTH1 171336Z 24003KT 04/02 A3004 RMK A01 T00390017  RH  086%=      5-min Rain = 0
KTH1 171337Z 25004KT 04/02 A3004 RMK A01 T00390016  RH  085%=      5-min Rain = 0
KTH1 171338Z 24004KT 04/02 A3004 RMK A01 T00390017  RH  085%=      5-min Rain = 0
KTH1 171339Z 25003KT 04/02 A3004 RMK A01 T00390017  RH  085%=      5-min Rain = 0
KTH1 171340Z 25003KT 04/02 A3004 RMK A01 T00390017  RH  085%=      5-min Rain = 0
KTH1 171341Z 25003KT 04/02 A3004 RMK A01 T00400018  RH  085%=      5-min Rain = 0
KTH1 171342Z 26003KT 04/02 A3004 RMK A01 T00400017  RH  085%=      5-min Rain = 0
KTH1 171343Z 26003KT 04/02 A3004 RMK A01 T00400017  RH  085%=      5-min Rain = 0
KTH1 171344Z 26003KT 04/02 A3005 RMK A01 T00400018  RH  085%=      5-min Rain = 0
KTH1 171345Z 27003KT 04/02 A3005 RMK A01 T00410019  RH  086%=      5-min Rain = 0
KTH1 171346Z 27002KT 04/02 A3005 RMK A01 T00410019  RH  086%=      5-min Rain = 0
KTH1 171347Z 26004KT 04/02 A3005 RMK A01 T00410020  RH  086%=      5-min Rain = 0
KTH1 171348Z 24004KT 04/02 A3005 RMK A01 T00420020  RH  086%=      5-min Rain = 0
KTH1 171349Z 24004KT 04/02 A3005 RMK A01 T00420018  RH  085%=      5-min Rain = 0
KTH1 171350Z 24004KT 04/02 A3005 RMK A01 T00420017  RH  084%=      5-min Rain = 0
KTH1 171351Z 25003KT 04/02 A3005 RMK A01 T00420017  RH  084%=      5-min Rain = 0
KTH1 171352Z 24003KT 04/02 A3005 RMK A01 T00420018  RH  085%=      5-min Rain = 0
KTH1 171353Z 25003KT 04/02 A3005 RMK A01 T00420018  RH  084%=      5-min Rain = 0
KTH1 171354Z 25004KT 04/02 A3005 RMK A01 T00420017  RH  084%=      5-min Rain = 0
KTH1 171355Z 25004KT 04/02 A3005 RMK A01 T00420017  RH  084%=      5-min Rain = 0
KTH1 171356Z 24004KT 04/02 A3005 RMK A01 T00430018  RH  084%=      5-min Rain = 0
KTH1 171357Z 25004KT 04/02 A3005 RMK A01 T00430018  RH  084%=      5-min Rain = 0
KTH1 171358Z 25004KT 04/02 A3005 RMK A01 T00430018  RH  084%=      5-min Rain = 0
KTH1 171359Z 26004KT 04/02 A3005 RMK A01 T00440019  RH  084%=      5-min Rain = 0
KTH1 171400Z 26004KT 04/02 A3005 RMK A01 T00440019  RH  084%=      5-min Rain = 0
KTH1 171401Z 26004KT 05/02 A3005 RMK A01 T00450020  RH  084%=      5-min Rain = 0
KTH1 171402Z 25004KT 05/02 A3005 RMK A01 T00460020  RH  084%=      5-min Rain = 0
KTH1 171403Z 25004KT 05/02 A3005 RMK A01 T00460021  RH  083%=      5-min Rain = 0
KTH1 171404Z 24003KT 05/02 A3005 RMK A01 T00470022  RH  084%=      5-min Rain = 0
KTH1 171405Z 24003KT 05/02 A3005 RMK A01 T00470021  RH  083%=      5-min Rain = 0
KTH1 171406Z 24003KT 05/02 A3005 RMK A01 T00470019  RH  082%=      5-min Rain = 0
KTH1 171407Z 25004KT 05/02 A3005 RMK A01 T00470018  RH  081%=      5-min Rain = 0
KTH1 171408Z 25004KT 05/02 A3005 RMK A01 T00480018  RH  081%=      5-min Rain = 0
KTH1 171409Z 25003KT 05/02 A3005 RMK A01 T00480019  RH  081%=      5-min Rain = 0
KTH1 171410Z 26003KT 05/02 A3005 RMK A01 T00490021  RH  082%=      5-min Rain = 0
KTH1 171411Z 26003KT 05/02 A3005 RMK A01 T00500022  RH  082%=      5-min Rain = 0
KTH1 171412Z 26003KT 05/02 A3005 RMK A01 T00520024  RH  082%=      5-min Rain = 0
KTH1 171413Z 26003KT 05/02 A3006 RMK A01 T00520024  RH  082%=      5-min Rain = 0
KTH1 171414Z 26003KT 05/03 A3006 RMK A01 T00530026  RH  083%=      5-min Rain = 0
KTH1 171415Z 27003KT 05/03 A3006 RMK A01 T00540027  RH  083%=      5-min Rain = 0
KTH1 171416Z 27003KT 06/03 A3006 RMK A01 T00550028  RH  083%=      5-min Rain = 0
KTH1 171417Z 26003KT 06/03 A3006 RMK A01 T00560029  RH  083%=      5-min Rain = 0
KTH1 171418Z 26003KT 06/03 A3006 RMK A01 T00570029  RH  082%=      5-min Rain = 0
KTH1 171419Z 26003KT 06/03 A3006 RMK A01 T00570027  RH  081%=      5-min Rain = 0
KTH1 171420Z 26003KT 06/03 A3006 RMK A01 T00570026  RH  081%=      5-min Rain = 0
KTH1 171421Z 27002KT 06/03 A3006 RMK A01 T00570027  RH  081%=      5-min Rain = 0
KTH1 171422Z 26003KT 06/03 A3006 RMK A01 T00580027  RH  081%=      5-min Rain = 0
KTH1 171423Z 26002KT 06/03 A3006 RMK A01 T00590028  RH  080%=      5-min Rain = 0
KTH1 171424Z 25002KT 06/03 A3006 RMK A01 T00600027  RH  080%=      5-min Rain = 0
KTH1 171425Z 25002KT 06/03 A3006 RMK A01 T00600028  RH  080%=      5-min Rain = 0
KTH1 171426Z 25002KT 06/03 A3006 RMK A01 T00610028  RH  080%=      5-min Rain = 0
KTH1 171427Z 26002KT 06/03 A3006 RMK A01 T00620029  RH  079%=      5-min Rain = 0
KTH1 171428Z 27002KT 06/03 A3006 RMK A01 T00630029  RH  079%=      5-min Rain = 0
KTH1 171429Z 26002KT 06/03 A3006 RMK A01 T00640031  RH  080%=      5-min Rain = 0
KTH1 171430Z 27002KT 07/03 A3006 RMK A01 T00650031  RH  079%=      5-min Rain = 0
KTH1 171431Z 26002KT 07/03 A3006 RMK A01 T00670032  RH  078%=      5-min Rain = 0
KTH1 171432Z 28002KT 07/03 A3006 RMK A01 T00670032  RH  078%=      5-min Rain = 0
KTH1 171433Z 30002KT 07/03 A3006 RMK A01 T00680033  RH  078%=      5-min Rain = 0
KTH1 171434Z 31004KT 07/03 A3006 RMK A01 T00680033  RH  078%=      5-min Rain = 0
KTH1 171435Z 31005KT 07/04 A3006 RMK A01 T00690035  RH  079%=      5-min Rain = 0
KTH1 171436Z 31005KT 07/04 A3006 RMK A01 T00710038  RH  079%=      5-min Rain = 0
KTH1 171437Z 32005KT 07/04 A3007 RMK A01 T00740040  RH  079%=      5-min Rain = 0
KTH1 171438Z 32004KT 08/04 A3007 RMK A01 T00760040  RH  078%=      5-min Rain = 0
KTH1 171439Z 31006KT 08/04 A3006 RMK A01 T00780040  RH  077%=      5-min Rain = 0
KTH1 171440Z 32007KT 08/04 A3006 RMK A01 T00790040  RH  076%=      5-min Rain = 0
KTH1 171441Z 32006KT 08/04 A3007 RMK A01 T00790040  RH  076%=      5-min Rain = 0
KTH1 171442Z 32006KT 08/04 A3007 RMK A01 T00800040  RH  076%=      5-min Rain = 0
KTH1 171443Z 31007KT 08/04 A3007 RMK A01 T00800041  RH  076%=      5-min Rain = 0
KTH1 171444Z 33007G12KT 08/04 A3007 RMK A01 T00820043  RH  077%=      5-min Rain = 0
KTH1 171445Z 32011KT 08/04 A3007 RMK A01 T00820043  RH  076%=      5-min Rain = 0
KTH1 171446Z 32009KT 08/04 A3007 RMK A01 T00810041  RH  076%=      5-min Rain = 0
KTH1 171447Z 32009KT 08/04 A3007 RMK A01 T00800042  RH  077%=      5-min Rain = 0
KTH1 171448Z 32007KT 08/04 A3007 RMK A01 T00790042  RH  077%=      5-min Rain = 0
KTH1 171449Z 31006KT 08/04 A3007 RMK A01 T00790042  RH  078%=      5-min Rain = 0
KTH1 171450Z 31008KT 08/04 A3007 RMK A01 T00790043  RH  078%=      5-min Rain = 0
KTH1 171451Z 30008KT 08/04 A3007 RMK A01 T00800043  RH  078%=      5-min Rain = 0
KTH1 171452Z 32007KT 08/04 A3007 RMK A01 T00810044  RH  078%=      5-min Rain = 0
KTH1 171453Z 32007KT 08/04 A3007 RMK A01 T00820044  RH  077%=      5-min Rain = 0
KTH1 171454Z 32007KT 08/04 A3007 RMK A01 T00820042  RH  076%=      5-min Rain = 0
KTH1 171455Z 31010KT 08/04 A3007 RMK A01 T00830043  RH  076%=      5-min Rain = 0
KTH1 171456Z 31011KT 08/04 A3007 RMK A01 T00830041  RH  075%=      5-min Rain = 0
KTH1 171457Z 32009KT 08/04 A3007 RMK A01 T00830042  RH  076%=      5-min Rain = 0
KTH1 171458Z 31010KT 08/04 A3007 RMK A01 T00830043  RH  076%=      5-min Rain = 0
KTH1 171459Z 32009KT 08/04 A3007 RMK A01 T00830041  RH  075%=      5-min Rain = 0
KTH1 171500Z 32010KT 08/04 A3007 RMK A01 T00830041  RH  075%=      5-min Rain = 0
KTH1 171501Z 31010KT 08/04 A3007 RMK A01 T00830041  RH  075%=      5-min Rain = 0
KTH1 171502Z 31009KT 08/04 A3007 RMK A01 T00830042  RH  075%=      5-min Rain = 0
KTH1 171503Z 31010KT 08/04 A3007 RMK A01 T00830044  RH  076%=      5-min Rain = 0
KTH1 171504Z 32010KT 08/04 A3008 RMK A01 T00840044  RH  076%=      5-min Rain = 0
KTH1 171505Z 32009KT 09/04 A3008 RMK A01 T00850043  RH  075%=      5-min Rain = 0
KTH1 171506Z 32009KT 09/04 A3008 RMK A01 T00860044  RH  075%=      5-min Rain = 0
KTH1 171507Z 31007KT 09/04 A3008 RMK A01 T00880044  RH  074%=      5-min Rain = 0
KTH1 171508Z 32008KT 09/05 A3008 RMK A01 T00890046  RH  074%=      5-min Rain = 0
KTH1 171509Z 32011KT 09/05 A3008 RMK A01 T00900046  RH  074%=      5-min Rain = 0
KTH1 171510Z 33013KT 09/05 A3008 RMK A01 T00920045  RH  072%=      5-min Rain = 0
KTH1 171511Z 32011KT 09/04 A3008 RMK A01 T00930043  RH  071%=      5-min Rain = 0
KTH1 171512Z 33012KT 09/04 A3008 RMK A01 T00930043  RH  071%=      5-min Rain = 0
KTH1 171513Z 33011KT 09/04 A3008 RMK A01 T00930041  RH  070%=      5-min Rain = 0
KTH1 171514Z 33008KT 09/04 A3008 RMK A01 T00940042  RH  070%=      5-min Rain = 0
KTH1 171515Z 32011KT 09/04 A3008 RMK A01 T00940042  RH  070%=      5-min Rain = 0
KTH1 171516Z 32013KT 09/04 A3008 RMK A01 T00940041  RH  069%=      5-min Rain = 0
KTH1 171517Z 32012KT 09/04 A3008 RMK A01 T00930040  RH  070%=      5-min Rain = 0
KTH1 171518Z 32009KT 09/04 A3008 RMK A01 T00930041  RH  070%=      5-min Rain = 0
KTH1 171519Z 32009KT 09/04 A3008 RMK A01 T00930042  RH  070%=      5-min Rain = 0
KTH1 171520Z 33010KT 09/04 A3008 RMK A01 T00940043  RH  070%=      5-min Rain = 0
KTH1 171521Z 33011KT 10/04 A3008 RMK A01 T00960041  RH  069%=      5-min Rain = 0
KTH1 171522Z 34010G17KT 10/04 A3008 RMK A01 T00960039  RH  068%=      5-min Rain = 0
KTH1 171523Z 33010KT 10/04 A3008 RMK A01 T00970041  RH  068%=      5-min Rain = 0
KTH1 171524Z 34008G13KT 10/04 A3008 RMK A01 T00980040  RH  067%=      5-min Rain = 0
KTH1 171525Z 33008KT 10/04 A3008 RMK A01 T00990040  RH  067%=      5-min Rain = 0
KTH1 171526Z 32008G13KT 10/04 A3008 RMK A01 T01000041  RH  067%=      5-min Rain = 0
KTH1 171527Z 32010KT 10/04 A3008 RMK A01 T01010040  RH  066%=      5-min Rain = 0
KTH1 171528Z 32010KT 10/04 A3008 RMK A01 T01010038  RH  065%=      5-min Rain = 0
KTH1 171529Z 32010KT 10/04 A3008 RMK A01 T01010038  RH  065%=      5-min Rain = 0
KTH1 171530Z 32011KT 10/04 A3008 RMK A01 T01020038  RH  065%=      5-min Rain = 0
KTH1 171531Z 33011KT 10/04 A3008 RMK A01 T01020037  RH  064%=      5-min Rain = 0
KTH1 171532Z 32009KT 10/04 A3008 RMK A01 T01020038  RH  064%=      5-min Rain = 0
KTH1 171533Z 34009KT 10/04 A3008 RMK A01 T01030039  RH  064%=      5-min Rain = 0
KTH1 171534Z 32009KT 10/04 A3008 RMK A01 T01040038  RH  064%=      5-min Rain = 0
KTH1 171535Z 32011KT 11/04 A3008 RMK A01 T01050038  RH  063%=      5-min Rain = 0
KTH1 171536Z 33010KT 11/04 A3008 RMK A01 T01050039  RH  064%=      5-min Rain = 0
KTH1 171537Z 34011KT 11/04 A3008 RMK A01 T01060038  RH  063%=      5-min Rain = 0
KTH1 171538Z 33012KT 11/04 A3008 RMK A01 T01070036  RH  061%=      5-min Rain = 0
KTH1 171539Z 33011G16KT 11/04 A3008 RMK A01 T01080037  RH  062%=      5-min Rain = 0
KTH1 171540Z 33010KT 11/04 A3008 RMK A01 T01090037  RH  061%=      5-min Rain = 0
KTH1 171541Z 34007G12KT 11/04 A3008 RMK A01 T01100036  RH  060%=      5-min Rain = 0
KTH1 171542Z 34011G17KT 11/04 A3008 RMK A01 T01110037  RH  060%=      5-min Rain = 0
KTH1 171543Z 34011KT 11/04 A3008 RMK A01 T01120035  RH  059%=      5-min Rain = 0
KTH1 171544Z 34012KT 11/03 A3008 RMK A01 T01120034  RH  059%=      5-min Rain = 0
KTH1 171545Z 34010G15KT 11/03 A3008 RMK A01 T01110034  RH  059%=      5-min Rain = 0
KTH1 171546Z 34010G15KT 11/04 A3008 RMK A01 T01120035  RH  059%=      5-min Rain = 0
KTH1 171547Z 34013KT 11/04 A3008 RMK A01 T01130035  RH  059%=      5-min Rain = 0
KTH1 171548Z 34014KT 11/03 A3008 RMK A01 T01130033  RH  058%=      5-min Rain = 0
KTH1 171549Z 34014G19KT 11/03 A3008 RMK A01 T01130032  RH  058%=      5-min Rain = 0
KTH1 171550Z 34010G17KT 11/03 A3008 RMK A01 T01130031  RH  057%=      5-min Rain = 0
KTH1 171551Z 35011G17KT 11/03 A3008 RMK A01 T01130032  RH  057%=      5-min Rain = 0
KTH1 171552Z 34013G18KT 11/03 A3008 RMK A01 T01140031  RH  057%=      5-min Rain = 0
KTH1 171553Z 35009KT 11/03 A3008 RMK A01 T01140030  RH  056%=      5-min Rain = 0
KTH1 171554Z 34009G15KT 12/03 A3008 RMK A01 T01150032  RH  057%=      5-min Rain = 0
KTH1 171555Z 35012G17KT 12/03 A3008 RMK A01 T01160032  RH  056%=      5-min Rain = 0
KTH1 171556Z 34009KT 12/03 A3008 RMK A01 T01160031  RH  056%=      5-min Rain = 0
KTH1 171557Z 35011G18KT 12/03 A3008 RMK A01 T01170032  RH  056%=      5-min Rain = 0
KTH1 171558Z 34013G18KT 12/03 A3008 RMK A01 T01180030  RH  055%=      5-min Rain = 0
KTH1 171559Z 36012G17KT 12/03 A3008 RMK A01 T01170029  RH  055%=      5-min Rain = 0
KTH1 171600Z 35012G18KT 12/03 A3008 RMK A01 T01170029  RH  055%=      5-min Rain = 0
KTH1 171601Z 34014KT 12/03 A3008 RMK A01 T01170030  RH  055%=      5-min Rain = 0
KTH1 171602Z 35012G17KT 12/03 A3008 RMK A01 T01160029  RH  055%=      5-min Rain = 0
KTH1 171603Z 36013G20KT 12/03 A3008 RMK A01 T01160029  RH  055%=      5-min Rain = 0
KTH1 171604Z 35014G19KT 12/03 A3008 RMK A01 T01160028  RH  054%=      5-min Rain = 0
KTH1 171605Z 34012KT 12/03 A3008 RMK A01 T01160026  RH  054%=      5-min Rain = 0
KTH1 171606Z 35014KT 12/03 A3008 RMK A01 T01160027  RH  055%=      5-min Rain = 0
KTH1 171607Z 34010KT 12/03 A3008 RMK A01 T01160027  RH  054%=      5-min Rain = 0
KTH1 171608Z 36010G15KT 12/03 A3008 RMK A01 T01170028  RH  054%=      5-min Rain = 0
KTH1 171609Z 36008KT 12/03 A3008 RMK A01 T01190029  RH  054%=      5-min Rain = 0
KTH1 171610Z 36009KT 12/03 A3008 RMK A01 T01210030  RH  054%=      5-min Rain = 0
KTH1 171611Z 35010G15KT 12/03 A3009 RMK A01 T01220029  RH  053%=      5-min Rain = 0
KTH1 171612Z 35012G17KT 12/03 A3009 RMK A01 T01220029  RH  053%=      5-min Rain = 0
KTH1 171613Z 35014KT 12/03 A3009 RMK A01 T01230029  RH  053%=      5-min Rain = 0
KTH1 171614Z 36016G21KT 12/03 A3009 RMK A01 T01210027  RH  053%=      5-min Rain = 0
KTH1 171615Z 36014G19KT 12/03 A3009 RMK A01 T01200026  RH  053%=      5-min Rain = 0
KTH1 171616Z 35016KT 12/03 A3009 RMK A01 T01180026  RH  053%=      5-min Rain = 0
KTH1 171617Z 35014G19KT 12/03 A3008 RMK A01 T01180026  RH  053%=      5-min Rain = 0
KTH1 171618Z 35013KT 12/03 A3008 RMK A01 T01180027  RH  054%=      5-min Rain = 0
KTH1 171619Z 35013KT 12/03 A3009 RMK A01 T01190027  RH  053%=      5-min Rain = 0
KTH1 171620Z 35011G16KT 12/03 A3009 RMK A01 T01190028  RH  053%=      5-min Rain = 0
KTH1 171621Z 34014KT 12/03 A3009 RMK A01 T01190028  RH  053%=      5-min Rain = 0
KTH1 171622Z 35012G17KT 12/03 A3009 RMK A01 T01200027  RH  053%=      5-min Rain = 0
KTH1 171623Z 35012G18KT 12/03 A3009 RMK A01 T01190027  RH  053%=      5-min Rain = 0
KTH1 171624Z 35011G16KT 12/03 A3009 RMK A01 T01200028  RH  053%=      5-min Rain = 0
KTH1 171625Z 35011G16KT 12/03 A3009 RMK A01 T01210028  RH  053%=      5-min Rain = 0
KTH1 171626Z 34008KT 12/03 A3009 RMK A01 T01220029  RH  053%=      5-min Rain = 0
KTH1 171627Z 35012G18KT 12/03 A3009 RMK A01 T01230029  RH  053%=      5-min Rain = 0
KTH1 171628Z 34010G17KT 12/03 A3009 RMK A01 T01240029  RH  052%=      5-min Rain = 0
KTH1 171629Z 35012G18KT 12/03 A3009 RMK A01 T01240029  RH  052%=      5-min Rain = 0
KTH1 171630Z 36012KT 12/03 A3009 RMK A01 T01240028  RH  052%=      5-min Rain = 0
KTH1 171631Z 35013G18KT 12/03 A3009 RMK A01 T01230028  RH  052%=      5-min Rain = 0
KTH1 171632Z 35015KT 12/03 A3009 RMK A01 T01230027  RH  052%=      5-min Rain = 0
KTH1 171633Z 35010G16KT 12/03 A3009 RMK A01 T01220027  RH  052%=      5-min Rain = 0
KTH1 171634Z 35012KT 12/03 A3009 RMK A01 T01220028  RH  053%=      5-min Rain = 0
KTH1 171635Z 35014G19KT 12/03 A3009 RMK A01 T01230028  RH  052%=      5-min Rain = 0
KTH1 171636Z 35013KT 12/03 A3009 RMK A01 T01230028  RH  052%=      5-min Rain = 0
KTH1 171637Z 34008G14KT 12/03 A3009 RMK A01 T01230028  RH  052%=      5-min Rain = 0
KTH1 171638Z 00007G13KT 12/03 A3009 RMK A01 T01240030  RH  053%=      5-min Rain = 0
KTH1 171639Z 36009G15KT 13/03 A3009 RMK A01 T01260031  RH  052%=      5-min Rain = 0
KTH1 171640Z 35014KT 13/03 A3009 RMK A01 T01280030  RH  051%=      5-min Rain = 0
KTH1 171641Z 35014G20KT 13/03 A3009 RMK A01 T01270028  RH  051%=      5-min Rain = 0
KTH1 171642Z 36012KT 13/03 A3009 RMK A01 T01250028  RH  052%=      5-min Rain = 0
KTH1 171643Z 00009KT 13/03 A3009 RMK A01 T01250029  RH  052%=      5-min Rain = 0
KTH1 171644Z 00012KT 13/03 A3009 RMK A01 T01270029  RH  051%=      5-min Rain = 0
KTH1 171645Z 00013KT 13/03 A3009 RMK A01 T01260028  RH  051%=      5-min Rain = 0
KTH1 171646Z 01012G20KT 13/03 A3009 RMK A01 T01270028  RH  051%=      5-min Rain = 0
KTH1 171647Z 01012G19KT 13/03 A3009 RMK A01 T01280027  RH  050%=      5-min Rain = 0
KTH1 171648Z 02013G18KT 13/03 A3009 RMK A01 T01280027  RH  050%=      5-min Rain = 0
KTH1 171649Z 01012G17KT 13/03 A3009 RMK A01 T01280028  RH  050%=      5-min Rain = 0
KTH1 171650Z 01011KT 13/03 A3009 RMK A01 T01290028  RH  050%=      5-min Rain = 0
KTH1 171651Z 01008G13KT 13/03 A3009 RMK A01 T01300029  RH  050%=      5-min Rain = 0
KTH1 171652Z 01012G18KT 13/03 A3009 RMK A01 T01310029  RH  050%=      5-min Rain = 0
KTH1 171653Z 00015KT 13/03 A3009 RMK A01 T01310028  RH  049%=      5-min Rain = 0
KTH1 171654Z 01013KT 13/03 A3009 RMK A01 T01310027  RH  049%=      5-min Rain = 0
KTH1 171655Z 01008KT 13/03 A3009 RMK A01 T01300028  RH  050%=      5-min Rain = 0
KTH1 171656Z 01013KT 13/03 A3009 RMK A01 T01310029  RH  050%=      5-min Rain = 0
KTH1 171657Z 01006G13KT 13/03 A3009 RMK A01 T01320029  RH  050%=      5-min Rain = 0
KTH1 171658Z 01011G17KT 14/03 A3009 RMK A01 T01350031  RH  050%=      5-min Rain = 0
KTH1 171659Z 03012KT 14/03 A3009 RMK A01 T01370029  RH  048%=      5-min Rain = 0
KTH1 171700Z 02011G17KT 14/03 A3009 RMK A01 T01360029  RH  048%=      5-min Rain = 0
KTH1 171701Z 00015KT 14/03 A3009 RMK A01 T01360029  RH  048%=      5-min Rain = 0
KTH1 171702Z 00011KT 14/03 A3009 RMK A01 T01360028  RH  048%=      5-min Rain = 0
KTH1 171703Z 36010KT 14/03 A3009 RMK A01 T01350029  RH  048%=      5-min Rain = 0
KTH1 171704Z 00014KT 14/03 A3009 RMK A01 T01370029  RH  048%=      5-min Rain = 0
KTH1 171705Z 36012G18KT 14/03 A3009 RMK A01 T01360028  RH  048%=      5-min Rain = 0
KTH1 171706Z 01009KT 14/03 A3009 RMK A01 T01350028  RH  048%=      5-min Rain = 0
KTH1 171707Z 01009KT 14/03 A3009 RMK A01 T01350028  RH  048%=      5-min Rain = 0
KTH1 171708Z 01011KT 14/03 A3009 RMK A01 T01360029  RH  048%=      5-min Rain = 0
KTH1 171709Z 02010KT 14/03 A3008 RMK A01 T01370029  RH  048%=      5-min Rain = 0
KTH1 171710Z 00010KT 14/03 A3009 RMK A01 T01370031  RH  049%=      5-min Rain = 0
KTH1 171711Z 35008KT 14/03 A3009 RMK A01 T01390031  RH  048%=      5-min Rain = 0
KTH1 171712Z 35011G18KT 14/03 A3009 RMK A01 T01410032  RH  048%=      5-min Rain = 0
KTH1 171713Z 01011G17KT 14/03 A3009 RMK A01 T01410030  RH  047%=      5-min Rain = 0
KTH1 171714Z 02011KT 14/03 A3009 RMK A01 T01400029  RH  047%=      5-min Rain = 0
KTH1 171715Z 01012G19KT 14/03 A3009 RMK A01 T01390030  RH  048%=      5-min Rain = 0
KTH1 171716Z 01010G15KT 14/03 A3009 RMK A01 T01380029  RH  048%=      5-min Rain = 0
KTH1 171717Z 01009KT 14/03 A3009 RMK A01 T01390031  RH  048%=      5-min Rain = 0
KTH1 171718Z 02009KT 14/03 A3009 RMK A01 T01400031  RH  048%=      5-min Rain = 0
KTH1 171719Z 02011KT 14/03 A3009 RMK A01 T01410031  RH  047%=      5-min Rain = 0
KTH1 171720Z 02007KT 14/03 A3009 RMK A01 T01410030  RH  047%=      5-min Rain = 0
KTH1 171721Z 01009KT 14/03 A3009 RMK A01 T01420032  RH  048%=      5-min Rain = 0
KTH1 171722Z 00009KT 14/03 A3009 RMK A01 T01430031  RH  047%=      5-min Rain = 0
KTH1 171723Z 02007KT 14/03 A3009 RMK A01 T01430032  RH  047%=      5-min Rain = 0
KTH1 171724Z 01007G13KT 15/03 A3009 RMK A01 T01450034  RH  047%=      5-min Rain = 0
KTH1 171725Z 00010KT 15/03 A3009 RMK A01 T01480033  RH  046%=      5-min Rain = 0
KTH1 171726Z 01009G16KT 15/03 A3009 RMK A01 T01460032  RH  046%=      5-min Rain = 0
KTH1 171727Z 00013KT 15/03 A3009 RMK A01 T01450032  RH  046%=      5-min Rain = 0
KTH1 171728Z 35014KT 14/03 A3009 RMK A01 T01440030  RH  046%=      5-min Rain = 0
KTH1 171729Z 00010KT 14/03 A3009 RMK A01 T01410030  RH  047%=      5-min Rain = 0
KTH1 171730Z 02009G15KT 14/03 A3009 RMK A01 T01420032  RH  048%=      5-min Rain = 0
KTH1 171731Z 03012KT 14/03 A3009 RMK A01 T01440032  RH  047%=      5-min Rain = 0
KTH1 171732Z 02011G16KT 14/03 A3009 RMK A01 T01430030  RH  047%=      5-min Rain = 0
KTH1 171733Z 01009G15KT 14/03 A3009 RMK A01 T01430031  RH  047%=      5-min Rain = 0
KTH1 171734Z 01010KT 14/03 A3009 RMK A01 T01440032  RH  047%=      5-min Rain = 0
KTH1 171735Z 01009KT 15/03 A3009 RMK A01 T01460032  RH  046%=      5-min Rain = 0
KTH1 171736Z 02010KT 15/03 A3009 RMK A01 T01470032  RH  046%=      5-min Rain = 0
KTH1 171737Z 02008KT 15/03 A3009 RMK A01 T01470031  RH  045%=      5-min Rain = 0
KTH1 171738Z 02010KT 15/03 A3009 RMK A01 T01470031  RH  045%=      5-min Rain = 0
KTH1 171739Z 01007KT 15/03 A3009 RMK A01 T01480031  RH  045%=      5-min Rain = 0
KTH1 171740Z 01009G14KT 15/03 A3009 RMK A01 T01490033  RH  046%=      5-min Rain = 0
KTH1 171741Z 03008KT 15/03 A3008 RMK A01 T01500031  RH  045%=      5-min Rain = 0
KTH1 171742Z 01011KT 15/03 A3008 RMK A01 T01490031  RH  045%=      5-min Rain = 0
KTH1 171743Z 35010KT 15/03 A3009 RMK A01 T01500032  RH  045%=      5-min Rain = 0
KTH1 171744Z 01009G14KT 15/03 A3008 RMK A01 T01500031  RH  045%=      5-min Rain = 0
KTH1 171745Z 01010G15KT 15/03 A3008 RMK A01 T01510031  RH  044%=      5-min Rain = 0
KTH1 171746Z 01010KT 15/03 A3009 RMK A01 T01500030  RH  044%=      5-min Rain = 0
KTH1 171747Z 02008KT 15/03 A3008 RMK A01 T01490030  RH  045%=      5-min Rain = 0
KTH1 171748Z 01010KT 15/03 A3008 RMK A01 T01490030  RH  045%=      5-min Rain = 0
KTH1 171749Z 00007G13KT 15/03 A3008 RMK A01 T01490030  RH  045%=      5-min Rain = 0
KTH1 171750Z 35010KT 15/03 A3008 RMK A01 T01490030  RH  045%=      5-min Rain = 0
KTH1 171751Z 35009KT 15/03 A3008 RMK A01 T01500030  RH  045%=      5-min Rain = 0
KTH1 171752Z 34008KT 15/03 A3008 RMK A01 T01490031  RH  045%=      5-min Rain = 0
KTH1 171753Z 02010KT 15/03 A3008 RMK A01 T01500032  RH  045%=      5-min Rain = 0
KTH1 171754Z 03008KT 15/03 A3007 RMK A01 T01500031  RH  045%=      5-min Rain = 0
KTH1 171755Z 01006KT 15/03 A3007 RMK A01 T01520034  RH  045%=      5-min Rain = 0
KTH1 171756Z 36007KT 16/03 A3007 RMK A01 T01550033  RH  044%=      5-min Rain = 0
KTH1 171757Z 01008KT 15/03 A3007 RMK A01 T01540032  RH  044%=      5-min Rain = 0
KTH1 171758Z 00008G13KT 15/03 A3007 RMK A01 T01520030  RH  044%=      5-min Rain = 0
KTH1 171759Z 35010KT 15/03 A3007 RMK A01 T01520032  RH  044%=      5-min Rain = 0
KTH1 171800Z 34010KT 15/03 A3007 RMK A01 T01520031  RH  044%=      5-min Rain = 0
KTH1 171801Z 00007G13KT 15/03 A3007 RMK A01 T01510033  RH  045%=      5-min Rain = 0
KTH1 171802Z 01006KT 15/03 A3007 RMK A01 T01540034  RH  044%=      5-min Rain = 0
KTH1 171803Z 02006KT 16/03 A3007 RMK A01 T01550032  RH  044%=      5-min Rain = 0
KTH1 171804Z 02007KT 16/03 A3007 RMK A01 T01550032  RH  044%=      5-min Rain = 0
KTH1 171805Z 02011KT 16/03 A3007 RMK A01 T01550032  RH  044%=      5-min Rain = 0
KTH1 171806Z 02010KT 16/03 A3007 RMK A01 T01550031  RH  043%=      5-min Rain = 0
KTH1 171807Z 02008KT 15/03 A3007 RMK A01 T01540031  RH  044%=      5-min Rain = 0
KTH1 171808Z 02006KT 15/03 A3007 RMK A01 T01530031  RH  044%=      5-min Rain = 0
KTH1 171809Z 01007KT 15/03 A3007 RMK A01 T01540032  RH  044%=      5-min Rain = 0
KTH1 171810Z 02010KT 15/03 A3007 RMK A01 T01540032  RH  044%=      5-min Rain = 0
KTH1 171811Z 02012KT 16/03 A3007 RMK A01 T01550032  RH  044%=      5-min Rain = 0
KTH1 171812Z 04008KT 15/03 A3007 RMK A01 T01540031  RH  044%=      5-min Rain = 0
KTH1 171813Z 02006KT 15/03 A3007 RMK A01 T01530032  RH  044%=      5-min Rain = 0
KTH1 171814Z 01007KT 16/03 A3007 RMK A01 T01550033  RH  044%=      5-min Rain = 0
KTH1 171815Z 03008KT 16/03 A3007 RMK A01 T01570034  RH  044%=      5-min Rain = 0
KTH1 171816Z 03010KT 16/03 A3007 RMK A01 T01590033  RH  043%=      5-min Rain = 0
KTH1 171817Z 03008KT 16/03 A3007 RMK A01 T01580032  RH  043%=      5-min Rain = 0
KTH1 171818Z 03007KT 16/03 A3007 RMK A01 T01570032  RH  043%=      5-min Rain = 0
KTH1 171819Z 00010KT 16/03 A3007 RMK A01 T01580032  RH  043%=      5-min Rain = 0
KTH1 171820Z 01012KT 16/03 A3007 RMK A01 T01580032  RH  043%=      5-min Rain = 0
KTH1 171821Z 00007KT 16/03 A3007 RMK A01 T01570032  RH  043%=      5-min Rain = 0
KTH1 171822Z 02008KT 16/04 A3007 RMK A01 T01580035  RH  044%=      5-min Rain = 0
KTH1 171823Z 04007KT 16/04 A3007 RMK A01 T01610035  RH  043%=      5-min Rain = 0
KTH1 171824Z 03008KT 16/03 A3007 RMK A01 T01610034  RH  043%=      5-min Rain = 0
KTH1 171825Z 02005KT 16/03 A3007 RMK A01 T01600033  RH  042%=      5-min Rain = 0
KTH1 171826Z 36004KT 16/04 A3007 RMK A01 T01600035  RH  043%=      5-min Rain = 0
KTH1 171827Z 02008KT 16/04 A3007 RMK A01 T01620035  RH  043%=      5-min Rain = 0
KTH1 171828Z 03010KT 16/03 A3007 RMK A01 T01630034  RH  042%=      5-min Rain = 0
KTH1 171829Z 03010KT 16/03 A3007 RMK A01 T01630033  RH  042%=      5-min Rain = 0
KTH1 171830Z 02009KT 16/03 A3007 RMK A01 T01620033  RH  042%=      5-min Rain = 0
KTH1 171831Z 02009KT 16/03 A3007 RMK A01 T01600032  RH  042%=      5-min Rain = 0
KTH1 171832Z 01008KT 16/03 A3007 RMK A01 T01600032  RH  042%=      5-min Rain = 0
KTH1 171833Z 35007KT 16/03 A3007 RMK A01 T01600033  RH  043%=      5-min Rain = 0
KTH1 171834Z 33007KT 16/03 A3007 RMK A01 T01610032  RH  042%=      5-min Rain = 0
KTH1 171835Z 01006KT 16/03 A3007 RMK A01 T01600034  RH  043%=      5-min Rain = 0
KTH1 171836Z 00007KT 16/04 A3007 RMK A01 T01620035  RH  043%=      5-min Rain = 0
KTH1 171837Z 01009KT 17/03 A3007 RMK A01 T01650034  RH  041%=      5-min Rain = 0
KTH1 171838Z 36010KT 16/03 A3007 RMK A01 T01640031  RH  041%=      5-min Rain = 0
KTH1 171839Z 02008KT 16/03 A3007 RMK A01 T01620031  RH  042%=      5-min Rain = 0
KTH1 171840Z 03009KT 16/03 A3007 RMK A01 T01620032  RH  042%=      5-min Rain = 0
KTH1 171841Z 02006KT 16/03 A3007 RMK A01 T01630033  RH  042%=      5-min Rain = 0
KTH1 171842Z 02009KT 16/03 A3007 RMK A01 T01630032  RH  042%=      5-min Rain = 0
KTH1 171843Z 01007G12KT 16/03 A3007 RMK A01 T01630032  RH  042%=      5-min Rain = 0
KTH1 171844Z 01007KT 16/04 A3007 RMK A01 T01630035  RH  042%=      5-min Rain = 0
KTH1 171845Z 02008KT 17/03 A3007 RMK A01 T01670034  RH  041%=      5-min Rain = 0
KTH1 171846Z 01009KT 17/03 A3007 RMK A01 T01670034  RH  041%=      5-min Rain = 0
KTH1 171847Z 01007KT 17/03 A3007 RMK A01 T01650032  RH  041%=      5-min Rain = 0
KTH1 171848Z 01008KT 16/03 A3007 RMK A01 T01630032  RH  041%=      5-min Rain = 0
KTH1 171849Z 01008KT 16/03 A3007 RMK A01 T01620032  RH  042%=      5-min Rain = 0
KTH1 171850Z 02006KT 16/03 A3007 RMK A01 T01620031  RH  041%=      5-min Rain = 0
KTH1 171851Z 34004KT 16/03 A3006 RMK A01 T01620034  RH  042%=      5-min Rain = 0
KTH1 171852Z 35007KT 17/04 A3007 RMK A01 T01650037  RH  042%=      5-min Rain = 0
KTH1 171853Z 34006KT 17/04 A3007 RMK A01 T01670035  RH  041%=      5-min Rain = 0
KTH1 171854Z 01007KT 17/03 A3007 RMK A01 T01670034  RH  041%=      5-min Rain = 0
KTH1 171855Z 35005KT 17/04 A3006 RMK A01 T01680035  RH  041%=      5-min Rain = 0
KTH1 171856Z 01007KT 17/04 A3006 RMK A01 T01690035  RH  041%=      5-min Rain = 0
KTH1 171857Z 36007KT 17/04 A3006 RMK A01 T01710037  RH  041%=      5-min Rain = 0
KTH1 171858Z 01009KT 17/04 A3006 RMK A01 T01710035  RH  040%=      5-min Rain = 0
KTH1 171859Z 02010KT 17/03 A3006 RMK A01 T01700033  RH  040%=      5-min Rain = 0
KTH1 171900Z 01008KT 17/03 A3006 RMK A01 T01680034  RH  041%=      5-min Rain = 0
KTH1 171901Z 35010KT 17/03 A3006 RMK A01 T01680034  RH  041%=      5-min Rain = 0
KTH1 171902Z 04007KT 17/04 A3006 RMK A01 T01680035  RH  041%=      5-min Rain = 0
KTH1 171903Z 03006KT 17/04 A3006 RMK A01 T01700036  RH  041%=      5-min Rain = 0
KTH1 171904Z 02008KT 17/04 A3006 RMK A01 T01720036  RH  040%=      5-min Rain = 0
KTH1 171905Z 01008KT 17/04 A3006 RMK A01 T01720035  RH  040%=      5-min Rain = 0
KTH1 171906Z 35010G16KT 17/04 A3006 RMK A01 T01700035  RH  040%=      5-min Rain = 0
KTH1 171907Z 33010G15KT 17/04 A3006 RMK A01 T01700036  RH  041%=      5-min Rain = 0
KTH1 171908Z 34011KT 17/04 A3006 RMK A01 T01700036  RH  041%=      5-min Rain = 0
KTH1 171909Z 34010G15KT 17/04 A3006 RMK A01 T01700035  RH  041%=      5-min Rain = 0
KTH1 171910Z 34008KT 17/04 A3006 RMK A01 T01700038  RH  041%=      5-min Rain = 0
KTH1 171911Z 35012KT 17/04 A3006 RMK A01 T01710036  RH  041%=      5-min Rain = 0
KTH1 171912Z 36007KT 17/04 A3006 RMK A01 T01690035  RH  041%=      5-min Rain = 0
KTH1 171913Z 35009KT 17/04 A3006 RMK A01 T01690037  RH  041%=      5-min Rain = 0
KTH1 171914Z 35009KT 17/04 A3006 RMK A01 T01700037  RH  041%=      5-min Rain = 0
KTH1 171915Z 01010KT 17/04 A3006 RMK A01 T01710036  RH  041%=      5-min Rain = 0
KTH1 171916Z 02006KT 17/04 A3006 RMK A01 T01710036  RH  040%=      5-min Rain = 0
KTH1 171917Z 36005KT 17/04 A3006 RMK A01 T01720038  RH  041%=      5-min Rain = 0
KTH1 171918Z 35007KT 18/04 A3006 RMK A01 T01750038  RH  040%=      5-min Rain = 0
KTH1 171919Z 33005G10KT 18/04 A3006 RMK A01 T01760039  RH  040%=      5-min Rain = 0
KTH1 171920Z 01008KT 18/04 A3006 RMK A01 T01760040  RH  040%=      5-min Rain = 0
KTH1 171921Z 00010KT 18/04 A3006 RMK A01 T01770038  RH  040%=      5-min Rain = 0
KTH1 171922Z 00008KT 18/04 A3006 RMK A01 T01750036  RH  040%=      5-min Rain = 0
KTH1 171923Z 00006KT 18/04 A3006 RMK A01 T01750038  RH  040%=      5-min Rain = 0
KTH1 171924Z 02007KT 18/04 A3006 RMK A01 T01770038  RH  040%=      5-min Rain = 0
KTH1 171925Z 01008KT 18/04 A3006 RMK A01 T01780037  RH  039%=      5-min Rain = 0
KTH1 171926Z 35007KT 18/04 A3005 RMK A01 T01780037  RH  039%=      5-min Rain = 0
KTH1 171927Z 34009KT 18/04 A3005 RMK A01 T01780039  RH  040%=      5-min Rain = 0
KTH1 171928Z 34009KT 18/04 A3005 RMK A01 T01770036  RH  039%=      5-min Rain = 0
KTH1 171929Z 00005KT 17/03 A3005 RMK A01 T01740034  RH  039%=      5-min Rain = 0
KTH1 171930Z 00009KT 17/04 A3005 RMK A01 T01730035  RH  040%=      5-min Rain = 0
KTH1 171931Z 36009KT 17/04 A3005 RMK A01 T01730035  RH  040%=      5-min Rain = 0
KTH1 171932Z 36007KT 17/04 A3005 RMK A01 T01730036  RH  040%=      5-min Rain = 0
KTH1 171933Z 36010KT 18/04 A3005 RMK A01 T01750038  RH  040%=      5-min Rain = 0
KTH1 171934Z 33008KT 18/04 A3005 RMK A01 T01770040  RH  040%=      5-min Rain = 0
KTH1 171935Z 33010KT 18/04 A3005 RMK A01 T01770037  RH  039%=      5-min Rain = 0
KTH1 171936Z 33009KT 18/04 A3005 RMK A01 T01760038  RH  040%=      5-min Rain = 0
KTH1 171937Z 35006KT 18/04 A3005 RMK A01 T01750037  RH  040%=      5-min Rain = 0
KTH1 171938Z 02009KT 18/04 A3005 RMK A01 T01760037  RH  040%=      5-min Rain = 0
KTH1 171939Z 36008KT 18/04 A3005 RMK A01 T01760035  RH  039%=      5-min Rain = 0
KTH1 171940Z 02010KT 18/04 A3005 RMK A01 T01770036  RH  039%=      5-min Rain = 0
KTH1 171941Z 02010KT 18/04 A3005 RMK A01 T01770036  RH  039%=      5-min Rain = 0
KTH1 171942Z 02010G15KT 18/04 A3005 RMK A01 T01770036  RH  039%=      5-min Rain = 0
KTH1 171943Z 03012KT 18/04 A3005 RMK A01 T01760036  RH  039%=      5-min Rain = 0
KTH1 171944Z 03009KT 18/04 A3005 RMK A01 T01750035  RH  039%=      5-min Rain = 0
KTH1 171945Z 04008KT 17/04 A3005 RMK A01 T01740036  RH  040%=      5-min Rain = 0
KTH1 171946Z 01008KT 18/04 A3005 RMK A01 T01760038  RH  040%=      5-min Rain = 0
KTH1 171947Z 34006KT 18/04 A3005 RMK A01 T01780039  RH  040%=      5-min Rain = 0
KTH1 171948Z 00008KT 18/04 A3005 RMK A01 T01790038  RH  039%=      5-min Rain = 0
KTH1 171949Z 36009KT 18/04 A3005 RMK A01 T01790037  RH  039%=      5-min Rain = 0
KTH1 171950Z 01008KT 18/04 A3005 RMK A01 T01780037  RH  039%=      5-min Rain = 0
KTH1 171951Z 02009KT 18/04 A3005 RMK A01 T01790037  RH  039%=      5-min Rain = 0
KTH1 171952Z 01008KT 18/04 A3005 RMK A01 T01790036  RH  039%=      5-min Rain = 0
KTH1 171953Z 01009KT 18/04 A3005 RMK A01 T01790037  RH  039%=      5-min Rain = 0
KTH1 171954Z 36007KT 18/04 A3005 RMK A01 T01800037  RH  039%=      5-min Rain = 0
KTH1 171955Z 35007KT 18/04 A3005 RMK A01 T01790037  RH  039%=      5-min Rain = 0
KTH1 171956Z 34007KT 18/04 A3004 RMK A01 T01800039  RH  039%=      5-min Rain = 0
KTH1 171957Z 34011KT 18/04 A3004 RMK A01 T01800038  RH  039%=      5-min Rain = 0
KTH1 171958Z 35011G17KT 18/04 A3004 RMK A01 T01780036  RH  039%=      5-min Rain = 0
KTH1 171959Z 36007G12KT 18/04 A3004 RMK A01 T01770036  RH  039%=      5-min Rain = 0
KTH1 172000Z 36008KT 18/04 A3004 RMK A01 T01770036  RH  039%=      5-min Rain = 0
KTH1 172001Z 35011KT 18/04 A3004 RMK A01 T01770035  RH  039%=      5-min Rain = 0
KTH1 172002Z 02010KT 18/03 A3004 RMK A01 T01750034  RH  039%=      5-min Rain = 0
KTH1 172003Z 02008KT 18/04 A3004 RMK A01 T01750036  RH  040%=      5-min Rain = 0
KTH1 172004Z 00006KT 18/04 A3004 RMK A01 T01750035  RH  039%=      5-min Rain = 0
KTH1 172005Z 35006G11KT 18/04 A3004 RMK A01 T01770038  RH  040%=      5-min Rain = 0
KTH1 172006Z 35010G16KT 18/04 A3004 RMK A01 T01800038  RH  039%=      5-min Rain = 0
KTH1 172007Z 34010KT 18/04 A3004 RMK A01 T01820036  RH  038%=      5-min Rain = 0
KTH1 172008Z 34010KT 18/04 A3004 RMK A01 T01800035  RH  038%=      5-min Rain = 0
KTH1 172009Z 35009G14KT 18/04 A3004 RMK A01 T01790035  RH  038%=      5-min Rain = 0
KTH1 172010Z 01009KT 18/04 A3004 RMK A01 T01790036  RH  039%=      5-min Rain = 0
KTH1 172011Z 03009KT 18/04 A3004 RMK A01 T01800035  RH  038%=      5-min Rain = 0
KTH1 172012Z 01007KT 18/03 A3004 RMK A01 T01790034  RH  038%=      5-min Rain = 0
KTH1 172013Z 01005KT 18/04 A3004 RMK A01 T01780035  RH  038%=      5-min Rain = 0
KTH1 172014Z 36004KT 18/04 A3004 RMK A01 T01790036  RH  038%=      5-min Rain = 0
KTH1 172015Z 02007G12KT 18/04 A3004 RMK A01 T01820038  RH  038%=      5-min Rain = 0
KTH1 172016Z 02009KT 19/04 A3004 RMK A01 T01850037  RH  037%=      5-min Rain = 0
KTH1 172017Z 02010KT 19/04 A3004 RMK A01 T01850035  RH  037%=      5-min Rain = 0
KTH1 172018Z 03010KT 18/03 A3004 RMK A01 T01840034  RH  037%=      5-min Rain = 0
KTH1 172019Z 02009KT 19/03 A3004 RMK A01 T01850034  RH  037%=      5-min Rain = 0
KTH1 172020Z 02010KT 19/04 A3004 RMK A01 T01850035  RH  037%=      5-min Rain = 0
KTH1 172021Z 03011G16KT 18/03 A3004 RMK A01 T01840033  RH  037%=      5-min Rain = 0
KTH1 172022Z 02010KT 18/03 A3004 RMK A01 T01820033  RH  037%=      5-min Rain = 0
KTH1 172023Z 02010G15KT 18/03 A3004 RMK A01 T01810033  RH  037%=      5-min Rain = 0
KTH1 172024Z 01010KT 18/03 A3004 RMK A01 T01810034  RH  038%=      5-min Rain = 0
KTH1 172025Z 01009KT 18/03 A3004 RMK A01 T01800033  RH  038%=      5-min Rain = 0
KTH1 172026Z 03009KT 18/03 A3004 RMK A01 T01800034  RH  038%=      5-min Rain = 0
KTH1 172027Z 01006G11KT 18/03 A3004 RMK A01 T01800034  RH  038%=      5-min Rain = 0
KTH1 172028Z 35009KT 18/04 A3004 RMK A01 T01810035  RH  038%=      5-min Rain = 0
KTH1 172029Z 33009KT 18/04 A3004 RMK A01 T01820035  RH  038%=      5-min Rain = 0
KTH1 172030Z 36009KT 18/04 A3004 RMK A01 T01800036  RH  038%=      5-min Rain = 0
KTH1 172031Z 35010KT 18/04 A3004 RMK A01 T01810037  RH  038%=      5-min Rain = 0
KTH1 172032Z 35009KT 18/04 A3004 RMK A01 T01830037  RH  038%=      5-min Rain = 0
KTH1 172033Z 00010KT 18/04 A3004 RMK A01 T01840037  RH  038%=      5-min Rain = 0
KTH1 172034Z 02009KT 18/04 A3004 RMK A01 T01840035  RH  037%=      5-min Rain = 0
KTH1 172035Z 01008G15KT 18/03 A3004 RMK A01 T01820034  RH  037%=      5-min Rain = 0
KTH1 172036Z 02010KT 18/04 A3004 RMK A01 T01820035  RH  038%=      5-min Rain = 0
KTH1 172037Z 01009KT 18/04 A3004 RMK A01 T01830035  RH  037%=      5-min Rain = 0
KTH1 172038Z 02011KT 18/04 A3004 RMK A01 T01830035  RH  037%=      5-min Rain = 0
KTH1 172039Z 03008KT 18/04 A3004 RMK A01 T01820035  RH  037%=      5-min Rain = 0
KTH1 172040Z 01011KT 18/04 A3004 RMK A01 T01820035  RH  038%=      5-min Rain = 0
KTH1 172041Z 01008KT 18/03 A3004 RMK A01 T01820034  RH  037%=      5-min Rain = 0
KTH1 172042Z 02006KT 18/03 A3004 RMK A01 T01810034  RH  038%=      5-min Rain = 0
KTH1 172043Z 04006KT 18/04 A3003 RMK A01 T01820036  RH  038%=      5-min Rain = 0
KTH1 172044Z 03011KT 18/04 A3003 RMK A01 T01840035  RH  037%=      5-min Rain = 0
KTH1 172045Z 04009KT 18/04 A3003 RMK A01 T01840036  RH  037%=      5-min Rain = 0
KTH1 172046Z 00007KT 18/04 A3003 RMK A01 T01840035  RH  037%=      5-min Rain = 0
KTH1 172047Z 36009KT 18/04 A3003 RMK A01 T01840036  RH  038%=      5-min Rain = 0
KTH1 172048Z 00006G11KT 18/04 A3003 RMK A01 T01830036  RH  038%=      5-min Rain = 0
KTH1 172049Z 35009KT 18/04 A3003 RMK A01 T01840039  RH  038%=      5-min Rain = 0
KTH1 172050Z 35009KT 19/04 A3003 RMK A01 T01850036  RH  037%=      5-min Rain = 0
KTH1 172051Z 02007KT 19/04 A3003 RMK A01 T01850037  RH  037%=      5-min Rain = 0
KTH1 172052Z 02009G14KT 19/04 A3003 RMK A01 T01850037  RH  037%=      5-min Rain = 0
KTH1 172053Z 01008G13KT 19/04 A3003 RMK A01 T01870036  RH  037%=      5-min Rain = 0
KTH1 172054Z 03010G16KT 19/04 A3003 RMK A01 T01870038  RH  037%=      5-min Rain = 0
KTH1 172055Z 03010G15KT 19/04 A3003 RMK A01 T01880035  RH  036%=      5-min Rain = 0
KTH1 172056Z 02009KT 19/04 A3003 RMK A01 T01860035  RH  037%=      5-min Rain = 0
KTH1 172057Z 03010KT 19/04 A3003 RMK A01 T01850036  RH  037%=      5-min Rain = 0
KTH1 172058Z 03010KT 19/04 A3003 RMK A01 T01860036  RH  037%=      5-min Rain = 0
KTH1 172059Z 03009KT 19/04 A3003 RMK A01 T01860036  RH  037%=      5-min Rain = 0
KTH1 172100Z 02009G14KT 19/04 A3003 RMK A01 T01860036  RH  037%=      5-min Rain = 0
KTH1 172101Z 03011KT 19/04 A3003 RMK A01 T01870036  RH  037%=      5-min Rain = 0
KTH1 172102Z 03010KT 18/03 A3003 RMK A01 T01840034  RH  037%=      5-min Rain = 0
KTH1 172103Z 03007KT 18/04 A3003 RMK A01 T01830036  RH  038%=      5-min Rain = 0
KTH1 172104Z 02007KT 18/04 A3003 RMK A01 T01830035  RH  037%=      5-min Rain = 0
KTH1 172105Z 00006KT 18/04 A3003 RMK A01 T01830035  RH  037%=      5-min Rain = 0
KTH1 172106Z 01006KT 18/04 A3003 RMK A01 T01840036  RH  037%=      5-min Rain = 0
KTH1 172107Z 03010KT 19/04 A3003 RMK A01 T01850036  RH  037%=      5-min Rain = 0
KTH1 172108Z 03006KT 19/04 A3003 RMK A01 T01860036  RH  037%=      5-min Rain = 0
KTH1 172109Z 01007KT 19/04 A3003 RMK A01 T01870037  RH  037%=      5-min Rain = 0
KTH1 172110Z 03010KT 19/04 A3003 RMK A01 T01880036  RH  036%=      5-min Rain = 0
KTH1 172111Z 02009KT 19/04 A3003 RMK A01 T01890035  RH  036%=      5-min Rain = 0
KTH1 172112Z 03010KT 19/03 A3003 RMK A01 T01880033  RH  036%=      5-min Rain = 0
KTH1 172113Z 03009KT 19/03 A3003 RMK A01 T01860033  RH  036%=      5-min Rain = 0
KTH1 172114Z 03008KT 19/03 A3003 RMK A01 T01850034  RH  036%=      5-min Rain = 0
KTH1 172115Z 03007KT 19/04 A3003 RMK A01 T01850035  RH  037%=      5-min Rain = 0
KTH1 172116Z 04010KT 19/04 A3002 RMK A01 T01870035  RH  036%=      5-min Rain = 0
KTH1 172117Z 03009KT 19/03 A3002 RMK A01 T01870034  RH  036%=      5-min Rain = 0
KTH1 172118Z 04009KT 19/03 A3002 RMK A01 T01860034  RH  036%=      5-min Rain = 0
KTH1 172119Z 02010KT 19/03 A3002 RMK A01 T01850034  RH  036%=      5-min Rain = 0
KTH1 172120Z 04009KT 19/03 A3002 RMK A01 T01850033  RH  036%=      5-min Rain = 0
KTH1 172121Z 03005KT 19/03 A3003 RMK A01 T01850034  RH  037%=      5-min Rain = 0
KTH1 172122Z 36009KT 19/04 A3003 RMK A01 T01870036  RH  037%=      5-min Rain = 0
KTH1 172123Z 01011KT 19/03 A3003 RMK A01 T01880034  RH  036%=      5-min Rain = 0
KTH1 172124Z 00010KT 19/03 A3003 RMK A01 T01870033  RH  036%=      5-min Rain = 0
KTH1 172125Z 00009KT 19/03 A3003 RMK A01 T01860034  RH  036%=      5-min Rain = 0
KTH1 172126Z 01008KT 19/03 A3003 RMK A01 T01850034  RH  037%=      5-min Rain = 0
KTH1 172127Z 01006KT 19/03 A3003 RMK A01 T01850033  RH  036%=      5-min Rain = 0
KTH1 172128Z 01006KT 19/03 A3003 RMK A01 T01860034  RH  036%=      5-min Rain = 0
KTH1 172129Z 02007G12KT 19/03 A3003 RMK A01 T01870034  RH  036%=      5-min Rain = 0
KTH1 172130Z 03009KT 19/03 A3003 RMK A01 T01870033  RH  036%=      5-min Rain = 0
KTH1 172131Z 04008KT 19/03 A3003 RMK A01 T01860033  RH  036%=      5-min Rain = 0
KTH1 172132Z 04008KT 19/03 A3003 RMK A01 T01860034  RH  036%=      5-min Rain = 0
KTH1 172133Z 04006KT 19/03 A3003 RMK A01 T01870034  RH  036%=      5-min Rain = 0
KTH1 172134Z 03007KT 19/03 A3003 RMK A01 T01880034  RH  036%=      5-min Rain = 0
KTH1 172135Z 01008KT 19/03 A3003 RMK A01 T01880033  RH  036%=      5-min Rain = 0
KTH1 172136Z 01007KT 19/03 A3003 RMK A01 T01870033  RH  036%=      5-min Rain = 0
KTH1 172137Z 35011KT 19/03 A3003 RMK A01 T01870034  RH  036%=      5-min Rain = 0
KTH1 172138Z 35011KT 19/03 A3003 RMK A01 T01860033  RH  036%=      5-min Rain = 0
KTH1 172139Z 01007KT 19/03 A3003 RMK A01 T01860033  RH  036%=      5-min Rain = 0
KTH1 172140Z 02005KT 19/03 A3003 RMK A01 T01850033  RH  036%=      5-min Rain = 0
KTH1 172141Z 03004KT 19/03 A3003 RMK A01 T01860034  RH  036%=      5-min Rain = 0
KTH1 172142Z 04007KT 19/03 A3003 RMK A01 T01870034  RH  036%=      5-min Rain = 0
KTH1 172143Z 03006KT 19/03 A3003 RMK A01 T01880034  RH  036%=      5-min Rain = 0
KTH1 172144Z 04008KT 19/03 A3003 RMK A01 T01880034  RH  036%=      5-min Rain = 0
KTH1 172145Z 02007KT 19/04 A3003 RMK A01 T01880035  RH  036%=      5-min Rain = 0
KTH1 172146Z 03007KT 19/03 A3003 RMK A01 T01880034  RH  036%=      5-min Rain = 0
KTH1 172147Z 02008KT 19/03 A3003 RMK A01 T01880034  RH  036%=      5-min Rain = 0
KTH1 172148Z 04006KT 19/03 A3003 RMK A01 T01870034  RH  036%=      5-min Rain = 0
KTH1 172149Z 01006KT 19/04 A3003 RMK A01 T01870035  RH  036%=      5-min Rain = 0
KTH1 172150Z 02007KT 19/03 A3003 RMK A01 T01870034  RH  036%=      5-min Rain = 0
KTH1 172151Z 02009KT 19/03 A3003 RMK A01 T01870033  RH  036%=      5-min Rain = 0
KTH1 172152Z 36007KT 19/03 A3003 RMK A01 T01860034  RH  036%=      5-min Rain = 0
KTH1 172153Z 01006KT 19/03 A3003 RMK A01 T01860034  RH  036%=      5-min Rain = 0
KTH1 172154Z 00006KT 19/03 A3003 RMK A01 T01860034  RH  037%=      5-min Rain = 0
KTH1 172155Z 35007G12KT 19/04 A3003 RMK A01 T01860035  RH  037%=      5-min Rain = 0
KTH1 172156Z 00009KT 19/04 A3003 RMK A01 T01870035  RH  036%=      5-min Rain = 0
KTH1 172157Z 01009KT 19/04 A3003 RMK A01 T01870035  RH  036%=      5-min Rain = 0
KTH1 172158Z 00008KT 19/04 A3003 RMK A01 T01870035  RH  036%=      5-min Rain = 0
KTH1 172159Z 36007KT 19/04 A3003 RMK A01 T01870036  RH  037%=      5-min Rain = 0
KTH1 172200Z 36008KT 19/04 A3003 RMK A01 T01870035  RH  036%=      5-min Rain = 0
KTH1 172201Z 03006KT 19/04 A3003 RMK A01 T01860035  RH  036%=      5-min Rain = 0
KTH1 172202Z 02006KT 19/04 A3003 RMK A01 T01860035  RH  037%=      5-min Rain = 0
KTH1 172203Z 01006KT 19/04 A3003 RMK A01 T01860035  RH  037%=      5-min Rain = 0
KTH1 172204Z 02006KT 19/04 A3003 RMK A01 T01870035  RH  037%=      5-min Rain = 0
KTH1 172205Z 02005KT 19/04 A3003 RMK A01 T01870035  RH  037%=      5-min Rain = 0
KTH1 172206Z 36005KT 19/04 A3003 RMK A01 T01870035  RH  036%=      5-min Rain = 0
KTH1 172207Z 36006KT 19/04 A3003 RMK A01 T01870035  RH  036%=      5-min Rain = 0
KTH1 172208Z 02006KT 19/04 A3003 RMK A01 T01870035  RH  036%=      5-min Rain = 0
KTH1 172209Z 01004KT 19/04 A3003 RMK A01 T01870036  RH  036%=      5-min Rain = 0
KTH1 172210Z 35009KT 19/04 A3003 RMK A01 T01880036  RH  036%=      5-min Rain = 0
KTH1 172211Z 00007KT 19/04 A3003 RMK A01 T01880035  RH  036%=      5-min Rain = 0
KTH1 172212Z 00009KT 19/04 A3003 RMK A01 T01880035  RH  036%=      5-min Rain = 0
KTH1 172213Z 00007G12KT 19/03 A3003 RMK A01 T01860034  RH  036%=      5-min Rain = 0
KTH1 172214Z 00007KT 19/03 A3003 RMK A01 T01860034  RH  037%=      5-min Rain = 0
KTH1 172215Z 36008KT 19/03 A3003 RMK A01 T01850034  RH  037%=      5-min Rain = 0
KTH1 172216Z 02007KT 18/03 A3003 RMK A01 T01840034  RH  037%=      5-min Rain = 0
KTH1 172217Z 01008KT 18/03 A3003 RMK A01 T01840034  RH  037%=      5-min Rain = 0
KTH1 172218Z 02007KT 18/03 A3003 RMK A01 T01840034  RH  037%=      5-min Rain = 0
KTH1 172219Z 03005KT 18/03 A3003 RMK A01 T01840034  RH  037%=      5-min Rain = 0
KTH1 172220Z 02004KT 18/03 A3003 RMK A01 T01840034  RH  037%=      5-min Rain = 0
KTH1 172221Z 00006KT 18/03 A3003 RMK A01 T01840034  RH  037%=      5-min Rain = 0
KTH1 172222Z 36006KT 18/03 A3003 RMK A01 T01840034  RH  037%=      5-min Rain = 0
KTH1 172223Z 36008KT 18/03 A3003 RMK A01 T01840034  RH  037%=      5-min Rain = 0
KTH1 172224Z 35008KT 18/03 A3003 RMK A01 T01840034  RH  037%=      5-min Rain = 0
KTH1 172225Z 35008G13KT 18/04 A3003 RMK A01 T01840036  RH  037%=      5-min Rain = 0
KTH1 172226Z 34008KT 18/04 A3003 RMK A01 T01830035  RH  037%=      5-min Rain = 0
KTH1 172227Z 35008KT 18/04 A3002 RMK A01 T01820035  RH  038%=      5-min Rain = 0
KTH1 172228Z 35008KT 18/04 A3003 RMK A01 T01820035  RH  038%=      5-min Rain = 0
KTH1 172229Z 35006KT 18/04 A3003 RMK A01 T01820035  RH  038%=      5-min Rain = 0
KTH1 172230Z 34007KT 18/03 A3003 RMK A01 T01810034  RH  037%=      5-min Rain = 0
KTH1 172231Z 33007KT 18/03 A3003 RMK A01 T01810034  RH  038%=      5-min Rain = 0
KTH1 172232Z 33007KT 18/03 A3003 RMK A01 T01810034  RH  038%=      5-min Rain = 0
KTH1 172233Z 33007G14KT 18/04 A3003 RMK A01 T01810035  RH  038%=      5-min Rain = 0
KTH1 172234Z 34010KT 18/04 A3003 RMK A01 T01810035  RH  038%=      5-min Rain = 0
KTH1 172235Z 34008KT 18/04 A3003 RMK A01 T01800036  RH  038%=      5-min Rain = 0
KTH1 172236Z 00008KT 18/04 A3003 RMK A01 T01800036  RH  038%=      5-min Rain = 0
KTH1 172237Z 01008KT 18/04 A3003 RMK A01 T01800035  RH  038%=      5-min Rain = 0
KTH1 172238Z 35010KT 18/04 A3003 RMK A01 T01800035  RH  038%=      5-min Rain = 0
KTH1 172239Z 36009KT 18/03 A3003 RMK A01 T01800034  RH  038%=      5-min Rain = 0
KTH1 172240Z 35010KT 18/03 A3003 RMK A01 T01790033  RH  038%=      5-min Rain = 0
KTH1 172241Z 35006KT 18/03 A3003 RMK A01 T01790033  RH  038%=      5-min Rain = 0
KTH1 172242Z 35007G12KT 18/03 A3003 RMK A01 T01780034  RH  038%=      5-min Rain = 0
KTH1 172243Z 35008KT 18/03 A3003 RMK A01 T01780034  RH  038%=      5-min Rain = 0
KTH1 172244Z 34007KT 18/03 A3003 RMK A01 T01780034  RH  038%=      5-min Rain = 0
KTH1 172245Z 34008KT 18/03 A3003 RMK A01 T01780034  RH  038%=      5-min Rain = 0
KTH1 172246Z 36007KT 18/03 A3003 RMK A01 T01770034  RH  038%=      5-min Rain = 0
KTH1 172247Z 36007KT 18/04 A3003 RMK A01 T01770035  RH  039%=      5-min Rain = 0
KTH1 172248Z 35006KT 18/04 A3003 RMK A01 T01760035  RH  039%=      5-min Rain = 0
KTH1 172249Z 35005KT 18/04 A3003 RMK A01 T01770035  RH  039%=      5-min Rain = 0
KTH1 172250Z 36005KT 18/04 A3003 RMK A01 T01760035  RH  039%=      5-min Rain = 0
KTH1 172251Z 00009KT 18/04 A3003 RMK A01 T01760035  RH  039%=      5-min Rain = 0
KTH1 172252Z 00007KT 18/03 A3003 RMK A01 T01760034  RH  039%=      5-min Rain = 0
KTH1 172253Z 36007KT 18/03 A3003 RMK A01 T01760034  RH  039%=      5-min Rain = 0
KTH1 172254Z 35004KT 18/03 A3003 RMK A01 T01760034  RH  039%=      5-min Rain = 0
KTH1 172255Z 35006KT 18/04 A3003 RMK A01 T01760035  RH  039%=      5-min Rain = 0
KTH1 172256Z 35008KT 18/04 A3004 RMK A01 T01750035  RH  039%=      5-min Rain = 0
KTH1 172257Z 34007KT 18/03 A3004 RMK A01 T01750034  RH  039%=      5-min Rain = 0
KTH1 172258Z 35009KT 18/03 A3004 RMK A01 T01750034  RH  039%=      5-min Rain = 0
KTH1 172259Z 36007KT 17/03 A3004 RMK A01 T01740033  RH  039%=      5-min Rain = 0
KTH1 172300Z 35005KT 17/03 A3004 RMK A01 T01740033  RH  039%=      5-min Rain = 0
KTH1 172301Z 34006KT 17/03 A3004 RMK A01 T01740034  RH  039%=      5-min Rain = 0
KTH1 172302Z 36005KT 17/03 A3004 RMK A01 T01730033  RH  039%=      5-min Rain = 0
KTH1 172303Z 36004KT 17/03 A3004 RMK A01 T01720033  RH  039%=      5-min Rain = 0
KTH1 172304Z 36005KT 17/03 A3004 RMK A01 T01720034  RH  040%=      5-min Rain = 0
KTH1 172305Z 35005KT 17/03 A3004 RMK A01 T01710033  RH  040%=      5-min Rain = 0
KTH1 172306Z 36006KT 17/03 A3004 RMK A01 T01710033  RH  040%=      5-min Rain = 0
KTH1 172307Z 00006KT 17/03 A3004 RMK A01 T01710033  RH  040%=      5-min Rain = 0
KTH1 172308Z 35005KT 17/03 A3004 RMK A01 T01710033  RH  040%=      5-min Rain = 0
KTH1 172309Z 36004KT 17/03 A3004 RMK A01 T01700034  RH  040%=      5-min Rain = 0
KTH1 172310Z 35005KT 17/03 A3004 RMK A01 T01700034  RH  040%=      5-min Rain = 0
KTH1 172311Z 35003KT 17/03 A3004 RMK A01 T01690034  RH  040%=      5-min Rain = 0
KTH1 172312Z 35004KT 17/03 A3004 RMK A01 T01680034  RH  041%=      5-min Rain = 0
KTH1 172313Z 34004KT 17/03 A3004 RMK A01 T01670034  RH  041%=      5-min Rain = 0
KTH1 172314Z 36006KT 17/03 A3004 RMK A01 T01670033  RH  041%=      5-min Rain = 0
KTH1 172315Z 36005KT 17/03 A3004 RMK A01 T01650032  RH  041%=      5-min Rain = 0
KTH1 172316Z 36006KT 17/03 A3004 RMK A01 T01650032  RH  041%=      5-min Rain = 0
KTH1 172317Z 36005KT 17/03 A3004 RMK A01 T01650032  RH  041%=      5-min Rain = 0
KTH1 172318Z 35004KT 16/03 A3004 RMK A01 T01640032  RH  041%=      5-min Rain = 0
KTH1 172319Z 35004KT 16/03 A3004 RMK A01 T01640032  RH  041%=      5-min Rain = 0
KTH1 172320Z 35004KT 16/03 A3004 RMK A01 T01630032  RH  042%=      5-min Rain = 0
KTH1 172321Z 35005KT 16/03 A3004 RMK A01 T01620032  RH  042%=      5-min Rain = 0
KTH1 172322Z 35004KT 16/03 A3004 RMK A01 T01610032  RH  042%=      5-min Rain = 0
KTH1 172323Z 35004KT 16/03 A3004 RMK A01 T01600032  RH  042%=      5-min Rain = 0
KTH1 172324Z 35005KT 16/03 A3004 RMK A01 T01590032  RH  043%=      5-min Rain = 0
KTH1 172325Z 35005KT 16/03 A3004 RMK A01 T01590032  RH  043%=      5-min Rain = 0
KTH1 172326Z 35004KT 16/03 A3004 RMK A01 T01580032  RH  043%=      5-min Rain = 0
KTH1 172327Z 35005KT 16/03 A3004 RMK A01 T01570032  RH  043%=      5-min Rain = 0
KTH1 172328Z 35004KT 16/03 A3004 RMK A01 T01560032  RH  043%=      5-min Rain = 0
KTH1 172329Z 36005KT 15/03 A3004 RMK A01 T01540032  RH  044%=      5-min Rain = 0
KTH1 172330Z 36004KT 15/03 A3004 RMK A01 T01530031  RH  044%=      5-min Rain = 0
KTH1 172331Z 36004KT 15/03 A3004 RMK A01 T01520031  RH  044%=      5-min Rain = 0
KTH1 172332Z 35004KT 15/03 A3004 RMK A01 T01510031  RH  045%=      5-min Rain = 0
KTH1 172333Z 35004KT 15/03 A3004 RMK A01 T01500032  RH  045%=      5-min Rain = 0
KTH1 172334Z 35003KT 15/03 A3004 RMK A01 T01490031  RH  045%=      5-min Rain = 0
KTH1 172335Z 35003KT 15/03 A3004 RMK A01 T01490031  RH  045%=      5-min Rain = 0
KTH1 172336Z 35004KT 15/03 A3004 RMK A01 T01480031  RH  045%=      5-min Rain = 0
KTH1 172337Z 35004KT 15/03 A3004 RMK A01 T01480031  RH  045%=      5-min Rain = 0
KTH1 172338Z 34003KT 15/03 A3004 RMK A01 T01470031  RH  046%=      5-min Rain = 0
KTH1 172339Z 34003KT 15/03 A3004 RMK A01 T01470032  RH  046%=      5-min Rain = 0
KTH1 172340Z 34004KT 15/03 A3004 RMK A01 T01460032  RH  046%=      5-min Rain = 0
KTH1 172341Z 34004KT 15/03 A3004 RMK A01 T01460032  RH  046%=      5-min Rain = 0
KTH1 172342Z 34004KT 15/03 A3004 RMK A01 T01460032  RH  046%=      5-min Rain = 0
KTH1 172343Z 34004KT 15/03 A3004 RMK A01 T01450032  RH  046%=      5-min Rain = 0
KTH1 172344Z 34004KT 15/03 A3004 RMK A01 T01450032  RH  046%=      5-min Rain = 0
KTH1 172345Z 34004KT 15/03 A3004 RMK A01 T01450032  RH  047%=      5-min Rain = 0
KTH1 172346Z 34004KT 14/03 A3004 RMK A01 T01440031  RH  047%=      5-min Rain = 0
KTH1 172347Z 34004KT 14/03 A3004 RMK A01 T01440033  RH  047%=      5-min Rain = 0
KTH1 172348Z 34004KT 14/03 A3004 RMK A01 T01430033  RH  047%=      5-min Rain = 0
KTH1 172349Z 33004KT 14/03 A3004 RMK A01 T01430032  RH  047%=      5-min Rain = 0
KTH1 172350Z 33004KT 14/03 A3004 RMK A01 T01430031  RH  047%=      5-min Rain = 0
KTH1 172351Z 33004KT 14/03 A3004 RMK A01 T01430031  RH  047%=      5-min Rain = 0
KTH1 172352Z 33004KT 14/03 A3005 RMK A01 T01420031  RH  047%=      5-min Rain = 0
KTH1 172353Z 33004KT 14/03 A3005 RMK A01 T01410034  RH  048%=      5-min Rain = 0
KTH1 172354Z 32004KT 14/04 A3005 RMK A01 T01400036  RH  049%=      5-min Rain = 0
KTH1 172355Z 32003KT 14/04 A3005 RMK A01 T01390040  RH  051%=      5-min Rain = 0
KTH1 172356Z 32003KT 14/04 A3005 RMK A01 T01370041  RH  052%=      5-min Rain = 0
KTH1 172357Z 32004KT 14/04 A3005 RMK A01 T01350039  RH  052%=      5-min Rain = 0
KTH1 172358Z 32004KT 13/04 A3005 RMK A01 T01340039  RH  053%=      5-min Rain = 0
KTH1 172359Z 32004KT 13/04 A3005 RMK A01 T01330040  RH  053%=      5-min Rain = 0
KTH1 180000Z 32004KT 13/04 A3005 RMK A01 T01320040  RH  053%=      5-min Rain = 0
KTH1 180001Z 32004KT 13/04 A3005 RMK A01 T01310040  RH  054%=      5-min Rain = 0
KTH1 180002Z 32004KT 13/04 A3005 RMK A01 T01300042  RH  055%=      5-min Rain = 0
KTH1 180003Z 32004KT 13/04 A3005 RMK A01 T01290038  RH  054%=      5-min Rain = 0
KTH1 180004Z 32004KT 13/04 A3005 RMK A01 T01280035  RH  053%=      5-min Rain = 0
KTH1 180005Z 33004KT 13/04 A3005 RMK A01 T01290035  RH  053%=      5-min Rain = 0
KTH1 180006Z 33004KT 13/04 A3005 RMK A01 T01290035  RH  053%=      5-min Rain = 0
KTH1 180007Z 33005KT 13/04 A3005 RMK A01 T01290035  RH  053%=      5-min Rain = 0
KTH1 180008Z 33005KT 13/04 A3005 RMK A01 T01300036  RH  053%=      5-min Rain = 0
KTH1 180009Z 33005KT 13/03 A3005 RMK A01 T01300034  RH  052%=      5-min Rain = 0
KTH1 180010Z 33005KT 13/03 A3005 RMK A01 T01300032  RH  052%=      5-min Rain = 0
KTH1 180011Z 33004KT 13/03 A3005 RMK A01 T01300031  RH  051%=      5-min Rain = 0
KTH1 180012Z 33004KT 13/03 A3005 RMK A01 T01300031  RH  051%=      5-min Rain = 0
KTH1 180013Z 32005KT 13/03 A3005 RMK A01 T01300030  RH  051%=      5-min Rain = 0
KTH1 180014Z 32005KT 13/03 A3005 RMK A01 T01300030  RH  050%=      5-min Rain = 0
KTH1 180015Z 33005KT 13/03 A3005 RMK A01 T01300030  RH  050%=      5-min Rain = 0
KTH1 180016Z 32005KT 13/03 A3005 RMK A01 T01300029  RH  050%=      5-min Rain = 0
KTH1 180017Z 33005KT 13/03 A3005 RMK A01 T01300031  RH  051%=      5-min Rain = 0
KTH1 180018Z 32004KT 13/03 A3005 RMK A01 T01290032  RH  052%=      5-min Rain = 0
KTH1 180019Z 33004KT 13/03 A3005 RMK A01 T01280032  RH  052%=      5-min Rain = 0
KTH1 180020Z 33004KT 13/03 A3005 RMK A01 T01270031  RH  052%=      5-min Rain = 0
KTH1 180021Z 32004KT 13/03 A3005 RMK A01 T01260031  RH  052%=      5-min Rain = 0
KTH1 180022Z 33005KT 13/03 A3005 RMK A01 T01260031  RH  052%=      5-min Rain = 0
KTH1 180023Z 32005KT 13/03 A3005 RMK A01 T01260032  RH  053%=      5-min Rain = 0
KTH1 180024Z 32005KT 13/03 A3005 RMK A01 T01250031  RH  053%=      5-min Rain = 0
KTH1 180025Z 32005KT 13/03 A3005 RMK A01 T01250034  RH  054%=      5-min Rain = 0
KTH1 180026Z 32005KT 12/04 A3005 RMK A01 T01230037  RH  055%=      5-min Rain = 0
KTH1 180027Z 32004KT 12/04 A3005 RMK A01 T01230035  RH  055%=      5-min Rain = 0
KTH1 180028Z 32005KT 12/04 A3005 RMK A01 T01230038  RH  056%=      5-min Rain = 0
KTH1 180029Z 33004KT 12/04 A3005 RMK A01 T01230039  RH  057%=      5-min Rain = 0
KTH1 180030Z 33004KT 12/04 A3005 RMK A01 T01220039  RH  057%=      5-min Rain = 0
KTH1 180031Z 33004KT 12/04 A3005 RMK A01 T01210037  RH  057%=      5-min Rain = 0
KTH1 180032Z 33004KT 12/04 A3005 RMK A01 T01200036  RH  056%=      5-min Rain = 0
KTH1 180033Z 33004KT 12/03 A3005 RMK A01 T01200034  RH  056%=      5-min Rain = 0
KTH1 180034Z 33004KT 12/03 A3006 RMK A01 T01200032  RH  055%=      5-min Rain = 0
KTH1 180035Z 32005KT 12/03 A3006 RMK A01 T01200030  RH  054%=      5-min Rain = 0
KTH1 180036Z 33005KT 12/03 A3006 RMK A01 T01200029  RH  054%=      5-min Rain = 0
KTH1 180037Z 33005KT 12/03 A3006 RMK A01 T01200028  RH  053%=      5-min Rain = 0
KTH1 180038Z 33005KT 12/03 A3006 RMK A01 T01210028  RH  053%=      5-min Rain = 0
KTH1 180039Z 33005KT 12/03 A3006 RMK A01 T01210028  RH  053%=      5-min Rain = 0
KTH1 180040Z 33005KT 12/03 A3006 RMK A01 T01210028  RH  053%=      5-min Rain = 0
KTH1 180041Z 33005KT 12/03 A3006 RMK A01 T01210028  RH  053%=      5-min Rain = 0
KTH1 180042Z 33005KT 12/03 A3006 RMK A01 T01210028  RH  053%=      5-min Rain = 0
KTH1 180043Z 33005KT 12/03 A3006 RMK A01 T01210028  RH  053%=      5-min Rain = 0
KTH1 180044Z 33005KT 12/03 A3006 RMK A01 T01200027  RH  053%=      5-min Rain = 0
KTH1 180045Z 33005KT 12/03 A3006 RMK A01 T01200028  RH  053%=      5-min Rain = 0
KTH1 180046Z 33005KT 12/03 A3006 RMK A01 T01190027  RH  053%=      5-min Rain = 0
KTH1 180047Z 33005KT 12/03 A3006 RMK A01 T01190028  RH  054%=      5-min Rain = 0
KTH1 180048Z 33005KT 12/03 A3006 RMK A01 T01180027  RH  054%=      5-min Rain = 0
KTH1 180049Z 33005KT 12/03 A3006 RMK A01 T01180027  RH  054%=      5-min Rain = 0
KTH1 180050Z 33005KT 12/03 A3006 RMK A01 T01180027  RH  054%=      5-min Rain = 0
KTH1 180051Z 34004KT 12/03 A3006 RMK A01 T01180027  RH  054%=      5-min Rain = 0
KTH1 180052Z 35005KT 12/03 A3006 RMK A01 T01170026  RH  054%=      5-min Rain = 0
KTH1 180053Z 34004KT 12/03 A3006 RMK A01 T01160026  RH  054%=      5-min Rain = 0
KTH1 180054Z 34005KT 12/03 A3006 RMK A01 T01160026  RH  054%=      5-min Rain = 0
KTH1 180055Z 34004KT 12/03 A3006 RMK A01 T01150025  RH  054%=      5-min Rain = 0
KTH1 180056Z 35004KT 11/03 A3006 RMK A01 T01140025  RH  054%=      5-min Rain = 0
KTH1 180057Z 35004KT 11/03 A3006 RMK A01 T01130025  RH  055%=      5-min Rain = 0
KTH1 180058Z 34004KT 11/03 A3007 RMK A01 T01120025  RH  055%=      5-min Rain = 0
KTH1 180059Z 34004KT 11/03 A3007 RMK A01 T01120025  RH  055%=      5-min Rain = 0
KTH1 180100Z 34004KT 11/03 A3007 RMK A01 T01110026  RH  056%=      5-min Rain = 0
KTH1 180101Z 34004KT 11/03 A3007 RMK A01 T01110026  RH  056%=      5-min Rain = 0
KTH1 180102Z 34003KT 11/03 A3007 RMK A01 T01110026  RH  056%=      5-min Rain = 0
KTH1 180103Z 33003KT 11/03 A3007 RMK A01 T01110026  RH  056%=      5-min Rain = 0
KTH1 180104Z 33003KT 11/03 A3007 RMK A01 T01110026  RH  056%=      5-min Rain = 0
KTH1 180105Z 33004KT 11/03 A3007 RMK A01 T01120026  RH  056%=      5-min Rain = 0
KTH1 180106Z 33004KT 11/03 A3007 RMK A01 T01130027  RH  055%=      5-min Rain = 0
KTH1 180107Z 33004KT 11/03 A3007 RMK A01 T01140027  RH  055%=      5-min Rain = 0
KTH1 180108Z 33004KT 12/03 A3007 RMK A01 T01150028  RH  055%=      5-min Rain = 0
KTH1 180109Z 33005KT 12/03 A3007 RMK A01 T01160028  RH  055%=      5-min Rain = 0
KTH1 180110Z 33004KT 12/03 A3007 RMK A01 T01160028  RH  054%=      5-min Rain = 0
KTH1 180111Z 33004KT 12/03 A3007 RMK A01 T01170028  RH  054%=      5-min Rain = 0
KTH1 180112Z 33004KT 12/03 A3007 RMK A01 T01170027  RH  054%=      5-min Rain = 0
KTH1 180113Z 34004KT 12/03 A3007 RMK A01 T01170027  RH  054%=      5-min Rain = 0
KTH1 180114Z 34004KT 12/03 A3007 RMK A01 T01170028  RH  054%=      5-min Rain = 0
KTH1 180115Z 34004KT 12/03 A3007 RMK A01 T01170027  RH  054%=      5-min Rain = 0
KTH1 180116Z 34004KT 12/03 A3007 RMK A01 T01170027  RH  054%=      5-min Rain = 0
KTH1 180117Z 35004KT 12/03 A3007 RMK A01 T01170027  RH  054%=      5-min Rain = 0
KTH1 180118Z 34005KT 12/03 A3007 RMK A01 T01170026  RH  054%=      5-min Rain = 0
KTH1 180119Z 34004KT 12/03 A3007 RMK A01 T01170027  RH  054%=      5-min Rain = 0
KTH1 180120Z 35004KT 12/03 A3007 RMK A01 T01160026  RH  054%=      5-min Rain = 0
KTH1 180121Z 34004KT 12/03 A3007 RMK A01 T01150026  RH  054%=      5-min Rain = 0
KTH1 180122Z 35004KT 12/03 A3007 RMK A01 T01150026  RH  054%=      5-min Rain = 0
KTH1 180123Z 34004KT 12/03 A3007 RMK A01 T01150026  RH  055%=      5-min Rain = 0
KTH1 180124Z 35004KT 11/03 A3007 RMK A01 T01140026  RH  055%=      5-min Rain = 0
KTH1 180125Z 34004KT 11/03 A3007 RMK A01 T01140026  RH  055%=      5-min Rain = 0
KTH1 180126Z 34003KT 11/03 A3007 RMK A01 T01140026  RH  055%=      5-min Rain = 0
KTH1 180127Z 33004KT 11/03 A3007 RMK A01 T01140026  RH  055%=      5-min Rain = 0
KTH1 180128Z 34003KT 11/03 A3007 RMK A01 T01140026  RH  055%=      5-min Rain = 0
KTH1 180129Z 34003KT 11/03 A3007 RMK A01 T01130026  RH  055%=      5-min Rain = 0
KTH1 180130Z 34003KT 11/03 A3007 RMK A01 T01140026  RH  055%=      5-min Rain = 0
KTH1 180131Z 33003KT 12/03 A3007 RMK A01 T01150026  RH  054%=      5-min Rain = 0
KTH1 180132Z 33003KT 12/03 A3007 RMK A01 T01150026  RH  054%=      5-min Rain = 0
KTH1 180133Z 32003KT 12/03 A3007 RMK A01 T01150026  RH  054%=      5-min Rain = 0
KTH1 180134Z 34004KT 12/03 A3007 RMK A01 T01150026  RH  054%=      5-min Rain = 0
KTH1 180135Z 33003KT 12/03 A3007 RMK A01 T01160027  RH  054%=      5-min Rain = 0
KTH1 180136Z 33003KT 12/03 A3007 RMK A01 T01160028  RH  055%=      5-min Rain = 0
KTH1 180137Z 32003KT 12/03 A3007 RMK A01 T01170031  RH  056%=      5-min Rain = 0
KTH1 180138Z 32003KT 12/03 A3007 RMK A01 T01170033  RH  057%=      5-min Rain = 0
KTH1 180139Z 32003KT 12/03 A3007 RMK A01 T01160031  RH  056%=      5-min Rain = 0
KTH1 180140Z 33004KT 12/03 A3007 RMK A01 T01160032  RH  056%=      5-min Rain = 0
KTH1 180141Z 32003KT 12/03 A3007 RMK A01 T01150032  RH  057%=      5-min Rain = 0
KTH1 180142Z 32003KT 11/03 A3007 RMK A01 T01140032  RH  057%=      5-min Rain = 0
KTH1 180143Z 33004KT 11/03 A3007 RMK A01 T01140031  RH  056%=      5-min Rain = 0
KTH1 180144Z 34003KT 11/03 A3007 RMK A01 T01140031  RH  057%=      5-min Rain = 0
KTH1 180145Z 33003KT 11/03 A3007 RMK A01 T01130031  RH  057%=      5-min Rain = 0
KTH1 180146Z 34003KT 11/03 A3007 RMK A01 T01130029  RH  056%=      5-min Rain = 0
KTH1 180147Z 32003KT 11/03 A3007 RMK A01 T01140029  RH  056%=      5-min Rain = 0
KTH1 180148Z 33003KT 11/03 A3007 RMK A01 T01130031  RH  057%=      5-min Rain = 0
KTH1 180149Z 32003KT 11/03 A3007 RMK A01 T01130032  RH  057%=      5-min Rain = 0
KTH1 180150Z 33003KT 11/03 A3007 RMK A01 T01110032  RH  058%=      5-min Rain = 0
KTH1 180151Z 32004KT 11/03 A3007 RMK A01 T01100029  RH  057%=      5-min Rain = 0
KTH1 180152Z 33004KT 11/03 A3007 RMK A01 T01100031  RH  058%=      5-min Rain = 0
KTH1 180153Z 33003KT 11/03 A3007 RMK A01 T01090030  RH  058%=      5-min Rain = 0
KTH1 180154Z 34004KT 11/03 A3007 RMK A01 T01080030  RH  058%=      5-min Rain = 0
KTH1 180155Z 33004KT 11/03 A3007 RMK A01 T01080030  RH  059%=      5-min Rain = 0
KTH1 180156Z 33004KT 11/03 A3007 RMK A01 T01080031  RH  059%=      5-min Rain = 0
KTH1 180157Z 34004KT 11/03 A3007 RMK A01 T01080029  RH  058%=      5-min Rain = 0
KTH1 180158Z 34004KT 11/03 A3007 RMK A01 T01070029  RH  058%=      5-min Rain = 0
KTH1 180159Z 34004KT 11/03 A3007 RMK A01 T01070027  RH  058%=      5-min Rain = 0
KTH1 180200Z 34004KT 11/03 A3007 RMK A01 T01070026  RH  057%=      5-min Rain = 0
KTH1 180201Z 34004KT 11/03 A3007 RMK A01 T01070025  RH  057%=      5-min Rain = 0
KTH1 180202Z 33003KT 11/03 A3007 RMK A01 T01070025  RH  057%=      5-min Rain = 0
KTH1 180203Z 33004KT 11/03 A3007 RMK A01 T01070025  RH  057%=      5-min Rain = 0
KTH1 180204Z 33003KT 11/03 A3007 RMK A01 T01070025  RH  057%=      5-min Rain = 0
KTH1 180205Z 33004KT 11/03 A3007 RMK A01 T01070025  RH  057%=      5-min Rain = 0
KTH1 180206Z 33004KT 11/02 A3007 RMK A01 T01060024  RH  057%=      5-min Rain = 0
KTH1 180207Z 33003KT 11/03 A3007 RMK A01 T01060025  RH  057%=      5-min Rain = 0
KTH1 180208Z 32003KT 11/03 A3007 RMK A01 T01060025  RH  057%=      5-min Rain = 0
KTH1 180209Z 33003KT 11/03 A3007 RMK A01 T01050026  RH  058%=      5-min Rain = 0
KTH1 180210Z 31002KT 11/03 A3007 RMK A01 T01050028  RH  059%=      5-min Rain = 0
KTH1 180211Z 29002KT 10/03 A3007 RMK A01 T01040030  RH  060%=      5-min Rain = 0
KTH1 180212Z 30002KT 10/03 A3007 RMK A01 T01040029  RH  060%=      5-min Rain = 0
KTH1 180213Z 30003KT 10/03 A3007 RMK A01 T01030027  RH  059%=      5-min Rain = 0
KTH1 180214Z 28002KT 10/03 A3007 RMK A01 T01020027  RH  059%=      5-min Rain = 0
KTH1 180215Z 27002KT 10/03 A3007 RMK A01 T01020027  RH  059%=      5-min Rain = 0
KTH1 180216Z 29002KT 10/03 A3007 RMK A01 T01020027  RH  060%=      5-min Rain = 0
KTH1 180217Z 30002KT 10/03 A3007 RMK A01 T01010027  RH  060%=      5-min Rain = 0
KTH1 180218Z 30002KT 10/03 A3007 RMK A01 T01020026  RH  059%=      5-min Rain = 0
KTH1 180219Z 32001KT 10/03 A3007 RMK A01 T01020026  RH  059%=      5-min Rain = 0
KTH1 180220Z 32002KT 10/03 A3007 RMK A01 T01020026  RH  059%=      5-min Rain = 0
KTH1 180221Z 32002KT 10/03 A3007 RMK A01 T01030028  RH  060%=      5-min Rain = 0
KTH1 180222Z 33003KT 10/03 A3007 RMK A01 T01030028  RH  059%=      5-min Rain = 0
KTH1 180223Z 32003KT 10/03 A3007 RMK A01 T01040028  RH  059%=      5-min Rain = 0
KTH1 180224Z 32002KT 10/03 A3007 RMK A01 T01040029  RH  060%=      5-min Rain = 0
KTH1 180225Z 32002KT 10/03 A3007 RMK A01 T01040030  RH  060%=      5-min Rain = 0
KTH1 180226Z 32002KT 10/03 A3007 RMK A01 T01040029  RH  060%=      5-min Rain = 0
KTH1 180227Z 31002KT 10/03 A3007 RMK A01 T01040030  RH  060%=      5-min Rain = 0
KTH1 180228Z 30002KT 11/03 A3008 RMK A01 T01050030  RH  060%=      5-min Rain = 0
KTH1 180229Z 28002KT 11/03 A3008 RMK A01 T01050029  RH  059%=      5-min Rain = 0
KTH1 180230Z 26002KT 11/03 A3008 RMK A01 T01050032  RH  060%=      5-min Rain = 0
KTH1 180231Z 26002KT 10/03 A3008 RMK A01 T01040033  RH  061%=      5-min Rain = 0
KTH1 180232Z 26001KT 10/03 A3008 RMK A01 T01020031  RH  061%=      5-min Rain = 0
KTH1 180233Z 28001KT 10/03 A3008 RMK A01 T01010029  RH  061%=      5-min Rain = 0
KTH1 180234Z 27001KT 10/03 A3008 RMK A01 T01010028  RH  060%=      5-min Rain = 0
KTH1 180235Z 27001KT 10/03 A3008 RMK A01 T01010027  RH  060%=      5-min Rain = 0
KTH1 180236Z 28001KT 10/03 A3008 RMK A01 T00990025  RH  060%=      5-min Rain = 0
KTH1 180237Z 32002KT 10/02 A3008 RMK A01 T00990023  RH  059%=      5-min Rain = 0
KTH1 180238Z 31002KT 10/02 A3008 RMK A01 T01000022  RH  058%=      5-min Rain = 0
KTH1 180239Z 29001KT 10/02 A3008 RMK A01 T01030022  RH  057%=      5-min Rain = 0
KTH1 180240Z 28001KT 10/02 A3008 RMK A01 T01040022  RH  057%=      5-min Rain = 0
KTH1 180241Z 29002KT 11/02 A3008 RMK A01 T01050023  RH  057%=      5-min Rain = 0
KTH1 180242Z 31002KT 10/03 A3008 RMK A01 T01040032  RH  061%=      5-min Rain = 0
KTH1 180243Z 32002KT 10/04 A3008 RMK A01 T01020042  RH  066%=      5-min Rain = 0
KTH1 180244Z 30002KT 10/04 A3008 RMK A01 T00990039  RH  066%=      5-min Rain = 0
KTH1 180245Z 31001KT 10/03 A3008 RMK A01 T00980031  RH  063%=      5-min Rain = 0
KTH1 180246Z 30002KT 10/03 A3008 RMK A01 T00980031  RH  063%=      5-min Rain = 0
KTH1 180247Z 30001KT 10/03 A3008 RMK A01 T00980033  RH  064%=      5-min Rain = 0
KTH1 180248Z 28002KT 10/03 A3008 RMK A01 T00970033  RH  064%=      5-min Rain = 0
KTH1 180249Z 29002KT 10/03 A3009 RMK A01 T00970031  RH  064%=      5-min Rain = 0
KTH1 180250Z 28002KT 10/03 A3009 RMK A01 T00960029  RH  063%=      5-min Rain = 0
KTH1 180251Z 28002KT 10/03 A3009 RMK A01 T00960031  RH  064%=      5-min Rain = 0
KTH1 180252Z 28002KT 10/03 A3009 RMK A01 T00950030  RH  064%=      5-min Rain = 0
KTH1 180253Z 29002KT 10/03 A3009 RMK A01 T00950028  RH  063%=      5-min Rain = 0
KTH1 180254Z 30002KT 09/03 A3009 RMK A01 T00940030  RH  064%=      5-min Rain = 0
KTH1 180255Z 30002KT 09/03 A3009 RMK A01 T00930030  RH  065%=      5-min Rain = 0
KTH1 180256Z 29002KT 09/03 A3009 RMK A01 T00930029  RH  065%=      5-min Rain = 0
KTH1 180257Z 30002KT 09/03 A3009 RMK A01 T00920033  RH  067%=      5-min Rain = 0
KTH1 180258Z 30002KT 09/03 A3009 RMK A01 T00920034  RH  067%=      5-min Rain = 0
KTH1 180259Z 32002KT 09/04 A3009 RMK A01 T00910037  RH  069%=      5-min Rain = 0
KTH1 180300Z 31002KT 09/03 A3009 RMK A01 T00910031  RH  066%=      5-min Rain = 0
KTH1 180301Z 32003KT 09/03 A3009 RMK A01 T00910028  RH  065%=      5-min Rain = 0
KTH1 180302Z 31003KT 09/03 A3009 RMK A01 T00920028  RH  064%=      5-min Rain = 0
KTH1 180303Z 32004KT 09/03 A3009 RMK A01 T00940025  RH  062%=      5-min Rain = 0
KTH1 180304Z 33003KT 10/03 A3009 RMK A01 T00950026  RH  062%=      5-min Rain = 0
KTH1 180305Z 32003KT 10/03 A3009 RMK A01 T00950027  RH  062%=      5-min Rain = 0
KTH1 180306Z 33003KT 10/03 A3009 RMK A01 T00960027  RH  062%=      5-min Rain = 0
KTH1 180307Z 33003KT 10/03 A3008 RMK A01 T00950027  RH  062%=      5-min Rain = 0
KTH1 180308Z 34003KT 10/03 A3009 RMK A01 T00950026  RH  062%=      5-min Rain = 0
KTH1 180309Z 34004KT 10/03 A3009 RMK A01 T00950026  RH  062%=      5-min Rain = 0
KTH1 180310Z 34003KT 10/03 A3009 RMK A01 T00950029  RH  063%=      5-min Rain = 0
KTH1 180311Z 33003KT 10/03 A3009 RMK A01 T00950032  RH  065%=      5-min Rain = 0
KTH1 180312Z 33004KT 09/03 A3009 RMK A01 T00940032  RH  065%=      5-min Rain = 0
KTH1 180313Z 32003KT 09/03 A3009 RMK A01 T00930033  RH  066%=      5-min Rain = 0
KTH1 180314Z 32003KT 09/04 A3009 RMK A01 T00920040  RH  070%=      5-min Rain = 0
KTH1 180315Z 33003KT 09/05 A3009 RMK A01 T00900045  RH  073%=      5-min Rain = 0
KTH1 180316Z 33003KT 09/04 A3009 RMK A01 T00880044  RH  074%=      5-min Rain = 0
KTH1 180317Z 33003KT 09/04 A3009 RMK A01 T00850041  RH  074%=      5-min Rain = 0
KTH1 180318Z 32002KT 08/04 A3009 RMK A01 T00830040  RH  074%=      5-min Rain = 0
KTH1 180319Z 32003KT 08/03 A3009 RMK A01 T00830034  RH  071%=      5-min Rain = 0
KTH1 180320Z 32003KT 08/03 A3009 RMK A01 T00840031  RH  069%=      5-min Rain = 0
KTH1 180321Z 32002KT 09/03 A3009 RMK A01 T00870030  RH  067%=      5-min Rain = 0
KTH1 180322Z 31003KT 09/03 A3009 RMK A01 T00890029  RH  066%=      5-min Rain = 0
KTH1 180323Z 31002KT 09/03 A3008 RMK A01 T00900031  RH  067%=      5-min Rain = 0
KTH1 180324Z 30002KT 09/04 A3008 RMK A01 T00880035  RH  070%=      5-min Rain = 0
KTH1 180325Z 29002KT 09/04 A3008 RMK A01 T00850035  RH  071%=      5-min Rain = 0
KTH1 180326Z 31003KT 08/03 A3008 RMK A01 T00830034  RH  071%=      5-min Rain = 0
KTH1 180327Z 31003KT 08/03 A3008 RMK A01 T00830033  RH  071%=      5-min Rain = 0
KTH1 180328Z 32002KT 08/03 A3008 RMK A01 T00830029  RH  069%=      5-min Rain = 0
KTH1 180329Z 31002KT 08/03 A3008 RMK A01 T00840027  RH  068%=      5-min Rain = 0
KTH1 180330Z 34002KT 08/03 A3008 RMK A01 T00840027  RH  067%=      5-min Rain = 0
KTH1 180331Z 31002KT 09/03 A3008 RMK A01 T00850026  RH  067%=      5-min Rain = 0
KTH1 180332Z 34002KT 09/03 A3008 RMK A01 T00850029  RH  068%=      5-min Rain = 0
KTH1 180333Z 33001KT 09/03 A3008 RMK A01 T00850027  RH  067%=      5-min Rain = 0
KTH1 180334Z 34002KT 09/02 A3008 RMK A01 T00850022  RH  065%=      5-min Rain = 0
KTH1 180335Z 34002KT 09/02 A3008 RMK A01 T00850021  RH  064%=      5-min Rain = 0
KTH1 180336Z 34002KT 09/02 A3008 RMK A01 T00860020  RH  063%=      5-min Rain = 0
KTH1 180337Z 34002KT 09/02 A3008 RMK A01 T00880020  RH  062%=      5-min Rain = 0
KTH1 180338Z 33002KT 09/02 A3008 RMK A01 T00890021  RH  063%=      5-min Rain = 0
KTH1 180339Z 34002KT 09/03 A3008 RMK A01 T00890029  RH  066%=      5-min Rain = 0
KTH1 180340Z 33002KT 09/04 A3008 RMK A01 T00880037  RH  070%=      5-min Rain = 0
KTH1 180341Z 34003KT 08/04 A3008 RMK A01 T00840039  RH  073%=      5-min Rain = 0
KTH1 180342Z 34003KT 08/04 A3008 RMK A01 T00820035  RH  072%=      5-min Rain = 0
KTH1 180343Z 34003KT 08/03 A3008 RMK A01 T00810031  RH  071%=      5-min Rain = 0
KTH1 180344Z 35004KT 08/03 A3008 RMK A01 T00830030  RH  070%=      5-min Rain = 0
KTH1 180345Z 36004KT 08/03 A3008 RMK A01 T00830033  RH  071%=      5-min Rain = 0
KTH1 180346Z 35003KT 08/03 A3008 RMK A01 T00830030  RH  069%=      5-min Rain = 0
KTH1 180347Z 36003KT 08/03 A3008 RMK A01 T00830032  RH  070%=      5-min Rain = 0
KTH1 180348Z 35004KT 08/03 A3008 RMK A01 T00830033  RH  071%=      5-min Rain = 0
KTH1 180349Z 35004KT 08/04 A3008 RMK A01 T00820036  RH  073%=      5-min Rain = 0
KTH1 180350Z 35004KT 08/04 A3008 RMK A01 T00810037  RH  074%=      5-min Rain = 0
KTH1 180351Z 34003KT 08/04 A3008 RMK A01 T00790040  RH  077%=      5-min Rain = 0
KTH1 180352Z 34003KT 08/04 A3008 RMK A01 T00770044  RH  080%=      5-min Rain = 0
KTH1 180353Z 34003KT 08/05 A3008 RMK A01 T00750045  RH  081%=      5-min Rain = 0
KTH1 180354Z 34004KT 07/04 A3008 RMK A01 T00730043  RH  081%=      5-min Rain = 0
KTH1 180355Z 35004KT 07/04 A3008 RMK A01 T00720042  RH  081%=      5-min Rain = 0
KTH1 180356Z 35004KT 07/04 A3008 RMK A01 T00710040  RH  081%=      5-min Rain = 0
KTH1 180357Z 35004KT 07/04 A3008 RMK A01 T00710041  RH  081%=      5-min Rain = 0
KTH1 180358Z 35004KT 07/04 A3008 RMK A01 T00700040  RH  081%=      5-min Rain = 0
KTH1 180359Z 35004KT 07/04 A3008 RMK A01 T00700040  RH  081%=      5-min Rain = 0
KTH1 180400Z 35004KT 07/04 A3008 RMK A01 T00690035  RH  079%=      5-min Rain = 0
KTH1 180401Z 34004KT 07/03 A3008 RMK A01 T00700033  RH  078%=      5-min Rain = 0
KTH1 180402Z 33004KT 07/04 A3008 RMK A01 T00710035  RH  078%=      5-min Rain = 0
KTH1 180403Z 33003KT 07/04 A3008 RMK A01 T00710038  RH  079%=      5-min Rain = 0
KTH1 180404Z 32002KT 07/04 A3008 RMK A01 T00710040  RH  081%=      5-min Rain = 0
KTH1 180405Z 31002KT 07/04 A3008 RMK A01 T00710042  RH  082%=      5-min Rain = 0
KTH1 180406Z 32003KT 07/04 A3008 RMK A01 T00700041  RH  082%=      5-min Rain = 0
KTH1 180407Z 31002KT 07/04 A3008 RMK A01 T00690039  RH  081%=      5-min Rain = 0
KTH1 180408Z 33003KT 07/04 A3008 RMK A01 T00690037  RH  080%=      5-min Rain = 0
KTH1 180409Z 32003KT 07/03 A3008 RMK A01 T00680033  RH  078%=      5-min Rain = 0
KTH1 180410Z 32002KT 07/03 A3008 RMK A01 T00690033  RH  077%=      5-min Rain = 0
KTH1 180411Z 34003KT 07/03 A3008 RMK A01 T00700033  RH  078%=      5-min Rain = 0
KTH1 180412Z 32003KT 07/03 A3008 RMK A01 T00710030  RH  075%=      5-min Rain = 0
KTH1 180413Z 32003KT 07/03 A3008 RMK A01 T00730031  RH  075%=      5-min Rain = 0
KTH1 180414Z 33003KT 07/03 A3008 RMK A01 T00730030  RH  074%=      5-min Rain = 0
KTH1 180415Z 32003KT 07/03 A3008 RMK A01 T00730027  RH  073%=      5-min Rain = 0
KTH1 180416Z 32002KT 07/03 A3008 RMK A01 T00730030  RH  074%=      5-min Rain = 0
KTH1 180417Z 32002KT 07/03 A3008 RMK A01 T00720028  RH  073%=      5-min Rain = 0
KTH1 180418Z 34004KT 07/03 A3008 RMK A01 T00730026  RH  072%=      5-min Rain = 0
KTH1 180419Z 32003KT 08/02 A3008 RMK A01 T00760023  RH  069%=      5-min Rain = 0
KTH1 180420Z 31003KT 08/02 A3008 RMK A01 T00780024  RH  069%=      5-min Rain = 0
KTH1 180421Z 33002KT 08/02 A3008 RMK A01 T00800022  RH  067%=      5-min Rain = 0
KTH1 180422Z 30003KT 08/02 A3008 RMK A01 T00820022  RH  065%=      5-min Rain = 0
KTH1 180423Z 31003KT 08/03 A3008 RMK A01 T00830026  RH  067%=      5-min Rain = 0
KTH1 180424Z 31002KT 08/03 A3008 RMK A01 T00800028  RH  070%=      5-min Rain = 0
KTH1 180425Z 33002KT 08/03 A3008 RMK A01 T00770027  RH  070%=      5-min Rain = 0
KTH1 180426Z 32002KT 08/02 A3008 RMK A01 T00770022  RH  068%=      5-min Rain = 0
KTH1 180427Z 33002KT 08/02 A3008 RMK A01 T00780023  RH  068%=      5-min Rain = 0
KTH1 180428Z 33002KT 08/02 A3008 RMK A01 T00790024  RH  068%=      5-min Rain = 0
KTH1 180429Z 31002KT 08/03 A3008 RMK A01 T00800025  RH  068%=      5-min Rain = 0
KTH1 180430Z 34002KT 08/03 A3007 RMK A01 T00800027  RH  070%=      5-min Rain = 0
KTH1 180431Z 31002KT 08/02 A3007 RMK A01 T00790023  RH  068%=      5-min Rain = 0
KTH1 180432Z 32002KT 08/03 A3007 RMK A01 T00800025  RH  068%=      5-min Rain = 0
KTH1 180433Z 32002KT 08/03 A3007 RMK A01 T00780028  RH  071%=      5-min Rain = 0
KTH1 180434Z 33002KT 08/03 A3008 RMK A01 T00760030  RH  073%=      5-min Rain = 0
KTH1 180435Z 32002KT 07/03 A3008 RMK A01 T00740028  RH  072%=      5-min Rain = 0
KTH1 180436Z 33002KT 07/03 A3008 RMK A01 T00740027  RH  072%=      5-min Rain = 0
KTH1 180437Z 33002KT 07/02 A3007 RMK A01 T00740023  RH  070%=      5-min Rain = 0
KTH1 180438Z 32002KT 07/02 A3007 RMK A01 T00740021  RH  069%=      5-min Rain = 0
KTH1 180439Z 33002KT 08/02 A3007 RMK A01 T00750022  RH  069%=      5-min Rain = 0
KTH1 180440Z 32002KT 08/02 A3007 RMK A01 T00750024  RH  070%=      5-min Rain = 0
KTH1 180441Z 31002KT 07/03 A3007 RMK A01 T00740026  RH  071%=      5-min Rain = 0
KTH1 180442Z 32002KT 07/03 A3007 RMK A01 T00730025  RH  072%=      5-min Rain = 0
KTH1 180443Z 33002KT 07/03 A3007 RMK A01 T00710028  RH  074%=      5-min Rain = 0
KTH1 180444Z 32002KT 07/03 A3007 RMK A01 T00700029  RH  075%=      5-min Rain = 0
KTH1 180445Z 29002KT 07/03 A3007 RMK A01 T00700030  RH  075%=      5-min Rain = 0
KTH1 180446Z 30002KT 07/03 A3007 RMK A01 T00690030  RH  076%=      5-min Rain = 0
KTH1 180447Z 31002KT 07/03 A3007 RMK A01 T00690029  RH  076%=      5-min Rain = 0
KTH1 180448Z 29003KT 07/03 A3007 RMK A01 T00670029  RH  077%=      5-min Rain = 0
KTH1 180449Z 28002KT 07/03 A3007 RMK A01 T00650027  RH  077%=      5-min Rain = 0
KTH1 180450Z 28003KT 06/03 A3007 RMK A01 T00640028  RH  078%=      5-min Rain = 0
KTH1 180451Z 28003KT 06/03 A3007 RMK A01 T00620027  RH  078%=      5-min Rain = 0
KTH1 180452Z 28003KT 06/03 A3007 RMK A01 T00610025  RH  078%=      5-min Rain = 0
KTH1 180453Z 27004KT 06/03 A3007 RMK A01 T00590025  RH  078%=      5-min Rain = 0
KTH1 180454Z 27003KT 06/03 A3007 RMK A01 T00580026  RH  080%=      5-min Rain = 0
KTH1 180455Z 29003KT 06/03 A3007 RMK A01 T00560027  RH  081%=      5-min Rain = 0
KTH1 180456Z 29003KT 06/03 A3007 RMK A01 T00560028  RH  083%=      5-min Rain = 0
KTH1 180457Z 30003KT 06/03 A3007 RMK A01 T00550028  RH  083%=      5-min Rain = 0
KTH1 180458Z 29003KT 06/03 A3007 RMK A01 T00550027  RH  082%=      5-min Rain = 0
KTH1 180459Z 28003KT 06/03 A3007 RMK A01 T00550027  RH  082%=      5-min Rain = 0
KTH1 180500Z 29002KT 06/03 A3007 RMK A01 T00560027  RH  082%=      5-min Rain = 0
KTH1 180501Z 28002KT 06/03 A3007 RMK A01 T00560026  RH  081%=      5-min Rain = 0
KTH1 180502Z 28003KT 06/03 A3006 RMK A01 T00560025  RH  081%=      5-min Rain = 0
KTH1 180503Z 28003KT 06/02 A3006 RMK A01 T00570024  RH  080%=      5-min Rain = 0
KTH1 180504Z 28002KT 06/03 A3006 RMK A01 T00580027  RH  081%=      5-min Rain = 0
KTH1 180505Z 27003KT 06/03 A3006 RMK A01 T00580028  RH  081%=      5-min Rain = 0
KTH1 180506Z 28002KT 06/03 A3006 RMK A01 T00570026  RH  080%=      5-min Rain = 0
KTH1 180507Z 28002KT 06/02 A3006 RMK A01 T00570024  RH  079%=      5-min Rain = 0
KTH1 180508Z 27002KT 06/03 A3006 RMK A01 T00580025  RH  080%=      5-min Rain = 0
KTH1 180509Z 28002KT 06/03 A3006 RMK A01 T00560025  RH  080%=      5-min Rain = 0
KTH1 180510Z 28002KT 06/02 A3006 RMK A01 T00560024  RH  080%=      5-min Rain = 0
KTH1 180511Z 28003KT 06/03 A3006 RMK A01 T00560026  RH  081%=      5-min Rain = 0
KTH1 180512Z 27003KT 06/03 A3006 RMK A01 T00560026  RH  081%=      5-min Rain = 0
KTH1 180513Z 26003KT 06/03 A3006 RMK A01 T00550025  RH  081%=      5-min Rain = 0
KTH1 180514Z 26003KT 05/03 A3006 RMK A01 T00530025  RH  082%=      5-min Rain = 0
KTH1 180515Z 26003KT 05/03 A3006 RMK A01 T00520026  RH  083%=      5-min Rain = 0
KTH1 180516Z 26004KT 05/03 A3006 RMK A01 T00520028  RH  084%=      5-min Rain = 0
KTH1 180517Z 25004KT 05/03 A3006 RMK A01 T00510026  RH  084%=      5-min Rain = 0
KTH1 180518Z 25003KT 05/03 A3006 RMK A01 T00500025  RH  084%=      5-min Rain = 0
KTH1 180519Z 25003KT 05/03 A3006 RMK A01 T00500026  RH  084%=      5-min Rain = 0
KTH1 180520Z 24003KT 05/03 A3006 RMK A01 T00500025  RH  084%=      5-min Rain = 0
KTH1 180521Z 25003KT 05/03 A3006 RMK A01 T00490025  RH  084%=      5-min Rain = 0
KTH1 180522Z 24004KT 05/02 A3006 RMK A01 T00490021  RH  082%=      5-min Rain = 0
KTH1 180523Z 23004KT 05/02 A3006 RMK A01 T00520017  RH  078%=      5-min Rain = 0
KTH1 180524Z 23004KT 05/02 A3006 RMK A01 T00540019  RH  078%=      5-min Rain = 0
KTH1 180525Z 23004KT 05/02 A3006 RMK A01 T00530021  RH  080%=      5-min Rain = 0
KTH1 180526Z 23004KT 05/02 A3006 RMK A01 T00500021  RH  081%=      5-min Rain = 0
KTH1 180527Z 22004KT 05/02 A3006 RMK A01 T00490021  RH  082%=      5-min Rain = 0
KTH1 180528Z 23004KT 05/02 A3006 RMK A01 T00480021  RH  083%=      5-min Rain = 0
KTH1 180529Z 23004KT 05/02 A3006 RMK A01 T00480024  RH  085%=      5-min Rain = 0
KTH1 180530Z 23004KT 05/02 A3006 RMK A01 T00480024  RH  084%=      5-min Rain = 0
KTH1 180531Z 23004KT 05/02 A3006 RMK A01 T00500023  RH  083%=      5-min Rain = 0
KTH1 180532Z 23004KT 05/02 A3006 RMK A01 T00500023  RH  083%=      5-min Rain = 0
KTH1 180533Z 23003KT 05/02 A3006 RMK A01 T00500022  RH  082%=      5-min Rain = 0
KTH1 180534Z 24003KT 05/02 A3006 RMK A01 T00510023  RH  082%=      5-min Rain = 0
KTH1 180535Z 24004KT 05/02 A3006 RMK A01 T00510024  RH  083%=      5-min Rain = 0
KTH1 180536Z 24004KT 05/03 A3006 RMK A01 T00510025  RH  083%=      5-min Rain = 0
KTH1 180537Z 24003KT 05/03 A3006 RMK A01 T00520026  RH  083%=      5-min Rain = 0
KTH1 180538Z 24003KT 05/03 A3006 RMK A01 T00520026  RH  084%=      5-min Rain = 0
KTH1 180539Z 24004KT 05/03 A3006 RMK A01 T00520026  RH  084%=      5-min Rain = 0
KTH1 180540Z 24004KT 05/03 A3006 RMK A01 T00520026  RH  084%=      5-min Rain = 0
KTH1 180541Z 24004KT 05/03 A3006 RMK A01 T00520026  RH  083%=      5-min Rain = 0
KTH1 180542Z 24004KT 05/03 A3006 RMK A01 T00520025  RH  083%=      5-min Rain = 0
KTH1 180543Z 24004KT 05/03 A3006 RMK A01 T00520026  RH  083%=      5-min Rain = 0
KTH1 180544Z 24004KT 05/03 A3006 RMK A01 T00520026  RH  083%=      5-min Rain = 0
KTH1 180545Z 24004KT 05/03 A3006 RMK A01 T00520026  RH  083%=      5-min Rain = 0
KTH1 180546Z 24004KT 05/03 A3006 RMK A01 T00520027  RH  084%=      5-min Rain = 0
KTH1 180547Z 24003KT 05/03 A3005 RMK A01 T00520027  RH  084%=      5-min Rain = 0
KTH1 180548Z 24004KT 05/03 A3005 RMK A01 T00520026  RH  084%=      5-min Rain = 0
KTH1 180549Z 25004KT 05/03 A3005 RMK A01 T00520027  RH  084%=      5-min Rain = 0
KTH1 180550Z 25004KT 05/03 A3005 RMK A01 T00520027  RH  084%=      5-min Rain = 0
KTH1 180551Z 25004KT 05/03 A3005 RMK A01 T00520026  RH  083%=      5-min Rain = 0
KTH1 180552Z 25004KT 05/03 A3005 RMK A01 T00520026  RH  083%=      5-min Rain = 0
KTH1 180553Z 25004KT 05/03 A3005 RMK A01 T00520027  RH  083%=      5-min Rain = 0
KTH1 180554Z 25004KT 05/03 A3005 RMK A01 T00530027  RH  083%=      5-min Rain = 0
KTH1 180555Z 24004KT 05/03 A3005 RMK A01 T00530027  RH  083%=      5-min Rain = 0
KTH1 180556Z 24004KT 05/03 A3005 RMK A01 T00530027  RH  083%=      5-min Rain = 0
KTH1 180557Z 23004KT 05/03 A3005 RMK A01 T00530027  RH  083%=      5-min Rain = 0
KTH1 180558Z 24003KT 05/03 A3005 RMK A01 T00530026  RH  083%=      5-min Rain = 0
KTH1 180559Z 24003KT 05/03 A3005 RMK A01 T00520025  RH  083%=      5-min Rain = 0

Page generated in 0.0691 seconds.